<?xml version="1.0" encoding="UTF-8" standalone="no" ?>
<gpx xmlns="http://www.topografix.com/GPX/1/1" xmlns:xsi="http://www.w3.org/2001/XMLSchema-instance" xsi:schemaLocation="http://www.topografix.com/GPX/1/1 http://www.topografix.com/GPX/1/1/gpx.xsd" version="1.1" creator="VisuGPX - https://www.visugpx.com">
  <metadata>
    <name>2SIVERGUEMichele26022021</name>
  </metadata>
  <trk>
    <name><![CDATA[2SIVERGUEMichele26022021]]></name>
    <trkseg>
      <trkpt lat="43.82201" lon="5.38515">
        <ele>283.83</ele>
        <time>2021-02-26T08:57:30Z</time>
      </trkpt>
      <trkpt lat="43.82194" lon="5.38509">
        <ele>284.69</ele>
        <time>2021-02-26T08:57:40Z</time>
      </trkpt>
      <trkpt lat="43.82192" lon="5.38509">
        <ele>289.78</ele>
        <time>2021-02-26T08:57:45Z</time>
      </trkpt>
      <trkpt lat="43.82192" lon="5.38508">
        <ele>293.93</ele>
        <time>2021-02-26T08:57:46Z</time>
      </trkpt>
      <trkpt lat="43.82191" lon="5.38508">
        <ele>298.27</ele>
        <time>2021-02-26T08:57:47Z</time>
      </trkpt>
      <trkpt lat="43.82191" lon="5.38508">
        <ele>302.51</ele>
        <time>2021-02-26T08:57:48Z</time>
      </trkpt>
      <trkpt lat="43.8219" lon="5.38508">
        <ele>306.91</ele>
        <time>2021-02-26T08:57:49Z</time>
      </trkpt>
      <trkpt lat="43.82189" lon="5.38509">
        <ele>310.93</ele>
        <time>2021-02-26T08:57:50Z</time>
      </trkpt>
      <trkpt lat="43.82189" lon="5.38509">
        <ele>314.17</ele>
        <time>2021-02-26T08:57:51Z</time>
      </trkpt>
      <trkpt lat="43.82188" lon="5.38509">
        <ele>317.39</ele>
        <time>2021-02-26T08:57:52Z</time>
      </trkpt>
      <trkpt lat="43.82187" lon="5.38509">
        <ele>321.1</ele>
        <time>2021-02-26T08:57:53Z</time>
      </trkpt>
      <trkpt lat="43.82187" lon="5.38509">
        <ele>324.47</ele>
        <time>2021-02-26T08:57:54Z</time>
      </trkpt>
      <trkpt lat="43.82186" lon="5.38509">
        <ele>327.71</ele>
        <time>2021-02-26T08:57:55Z</time>
      </trkpt>
      <trkpt lat="43.82186" lon="5.38509">
        <ele>330.85</ele>
        <time>2021-02-26T08:57:56Z</time>
      </trkpt>
      <trkpt lat="43.82185" lon="5.3851">
        <ele>333.89</ele>
        <time>2021-02-26T08:57:57Z</time>
      </trkpt>
      <trkpt lat="43.82184" lon="5.3851">
        <ele>339.67</ele>
        <time>2021-02-26T08:57:59Z</time>
      </trkpt>
      <trkpt lat="43.82183" lon="5.38511">
        <ele>345.09</ele>
        <time>2021-02-26T08:58:01Z</time>
      </trkpt>
      <trkpt lat="43.82182" lon="5.38512">
        <ele>351.41</ele>
        <time>2021-02-26T08:58:03Z</time>
      </trkpt>
      <trkpt lat="43.82182" lon="5.38513">
        <ele>355.16</ele>
        <time>2021-02-26T08:58:04Z</time>
      </trkpt>
      <trkpt lat="43.82181" lon="5.38514">
        <ele>358.43</ele>
        <time>2021-02-26T08:58:06Z</time>
      </trkpt>
      <trkpt lat="43.82181" lon="5.38515">
        <ele>362.6</ele>
        <time>2021-02-26T08:58:08Z</time>
      </trkpt>
      <trkpt lat="43.82181" lon="5.38515">
        <ele>367.66</ele>
        <time>2021-02-26T08:58:10Z</time>
      </trkpt>
      <trkpt lat="43.8218" lon="5.38515">
        <ele>372.49</ele>
        <time>2021-02-26T08:58:13Z</time>
      </trkpt>
      <trkpt lat="43.8218" lon="5.38515">
        <ele>375.94</ele>
        <time>2021-02-26T08:58:15Z</time>
      </trkpt>
      <trkpt lat="43.8218" lon="5.38516">
        <ele>379.89</ele>
        <time>2021-02-26T08:58:18Z</time>
      </trkpt>
      <trkpt lat="43.8218" lon="5.38516">
        <ele>383.54</ele>
        <time>2021-02-26T08:58:20Z</time>
      </trkpt>
      <trkpt lat="43.8218" lon="5.38516">
        <ele>387.25</ele>
        <time>2021-02-26T08:58:23Z</time>
      </trkpt>
      <trkpt lat="43.82179" lon="5.38517">
        <ele>390.51</ele>
        <time>2021-02-26T08:58:26Z</time>
      </trkpt>
      <trkpt lat="43.8218" lon="5.38517">
        <ele>393.69</ele>
        <time>2021-02-26T08:58:31Z</time>
      </trkpt>
      <trkpt lat="43.82179" lon="5.38516">
        <ele>396.96</ele>
        <time>2021-02-26T08:58:34Z</time>
      </trkpt>
      <trkpt lat="43.82179" lon="5.38516">
        <ele>396.96</ele>
        <time>2021-02-26T08:58:35Z</time>
      </trkpt>
      <trkpt lat="43.82179" lon="5.38516">
        <ele>400.68</ele>
        <time>2021-02-26T08:58:38Z</time>
      </trkpt>
      <trkpt lat="43.82179" lon="5.38515">
        <ele>403.68</ele>
        <time>2021-02-26T08:58:44Z</time>
      </trkpt>
      <trkpt lat="43.82179" lon="5.38515">
        <ele>406.29</ele>
        <time>2021-02-26T08:58:49Z</time>
      </trkpt>
      <trkpt lat="43.82179" lon="5.38515">
        <ele>409.81</ele>
        <time>2021-02-26T08:58:56Z</time>
      </trkpt>
      <trkpt lat="43.82178" lon="5.3852">
        <ele>412.92</ele>
        <time>2021-02-26T08:59:08Z</time>
      </trkpt>
      <trkpt lat="43.82179" lon="5.38522">
        <ele>416.19</ele>
        <time>2021-02-26T08:59:31Z</time>
      </trkpt>
      <trkpt lat="43.82177" lon="5.3854">
        <ele>415.58</ele>
        <time>2021-02-26T08:59:49Z</time>
      </trkpt>
      <trkpt lat="43.82177" lon="5.38552">
        <ele>415.68</ele>
        <time>2021-02-26T09:00:06Z</time>
      </trkpt>
      <trkpt lat="43.82176" lon="5.38565">
        <ele>415.78</ele>
        <time>2021-02-26T09:00:33Z</time>
      </trkpt>
      <trkpt lat="43.82176" lon="5.38568">
        <ele>422.09</ele>
        <time>2021-02-26T09:00:53Z</time>
      </trkpt>
      <trkpt lat="43.82176" lon="5.38568">
        <ele>422.09</ele>
        <time>2021-02-26T09:00:54Z</time>
      </trkpt>
      <trkpt lat="43.82177" lon="5.3857">
        <ele>420.37</ele>
        <time>2021-02-26T09:00:59Z</time>
      </trkpt>
      <trkpt lat="43.82177" lon="5.38571">
        <ele>423.66</ele>
        <time>2021-02-26T09:01:01Z</time>
      </trkpt>
      <trkpt lat="43.82176" lon="5.38572">
        <ele>419.8</ele>
        <time>2021-02-26T09:01:02Z</time>
      </trkpt>
      <trkpt lat="43.82176" lon="5.38573">
        <ele>424.62</ele>
        <time>2021-02-26T09:01:03Z</time>
      </trkpt>
      <trkpt lat="43.82176" lon="5.38589">
        <ele>424.08</ele>
        <time>2021-02-26T09:01:18Z</time>
      </trkpt>
      <trkpt lat="43.82175" lon="5.38605">
        <ele>425.63</ele>
        <time>2021-02-26T09:01:33Z</time>
      </trkpt>
      <trkpt lat="43.82178" lon="5.38614">
        <ele>427.03</ele>
        <time>2021-02-26T09:01:45Z</time>
      </trkpt>
      <trkpt lat="43.82181" lon="5.38624">
        <ele>427.48</ele>
        <time>2021-02-26T09:01:53Z</time>
      </trkpt>
      <trkpt lat="43.82185" lon="5.38637">
        <ele>427.86</ele>
        <time>2021-02-26T09:02:04Z</time>
      </trkpt>
      <trkpt lat="43.82185" lon="5.38639">
        <ele>429</ele>
        <time>2021-02-26T09:02:17Z</time>
      </trkpt>
      <trkpt lat="43.82188" lon="5.38647">
        <ele>429.55</ele>
        <time>2021-02-26T09:02:35Z</time>
      </trkpt>
      <trkpt lat="43.82193" lon="5.38658">
        <ele>429.48</ele>
        <time>2021-02-26T09:02:50Z</time>
      </trkpt>
      <trkpt lat="43.82196" lon="5.38664">
        <ele>429.47</ele>
        <time>2021-02-26T09:02:56Z</time>
      </trkpt>
      <trkpt lat="43.82198" lon="5.38667">
        <ele>432.5</ele>
        <time>2021-02-26T09:03:01Z</time>
      </trkpt>
      <trkpt lat="43.82199" lon="5.3867">
        <ele>431.65</ele>
        <time>2021-02-26T09:03:04Z</time>
      </trkpt>
      <trkpt lat="43.82203" lon="5.3868">
        <ele>431.95</ele>
        <time>2021-02-26T09:03:14Z</time>
      </trkpt>
      <trkpt lat="43.82208" lon="5.38702">
        <ele>433.33</ele>
        <time>2021-02-26T09:03:30Z</time>
      </trkpt>
      <trkpt lat="43.82212" lon="5.38721">
        <ele>435.06</ele>
        <time>2021-02-26T09:03:45Z</time>
      </trkpt>
      <trkpt lat="43.82213" lon="5.38732">
        <ele>436.45</ele>
        <time>2021-02-26T09:03:54Z</time>
      </trkpt>
      <trkpt lat="43.82214" lon="5.38749">
        <ele>438.35</ele>
        <time>2021-02-26T09:04:09Z</time>
      </trkpt>
      <trkpt lat="43.82215" lon="5.38754">
        <ele>437.39</ele>
        <time>2021-02-26T09:04:26Z</time>
      </trkpt>
      <trkpt lat="43.82214" lon="5.38756">
        <ele>437.54</ele>
        <time>2021-02-26T09:05:15Z</time>
      </trkpt>
      <trkpt lat="43.82215" lon="5.38756">
        <ele>437.62</ele>
        <time>2021-02-26T09:05:23Z</time>
      </trkpt>
      <trkpt lat="43.82214" lon="5.38773">
        <ele>439.38</ele>
        <time>2021-02-26T09:05:46Z</time>
      </trkpt>
      <trkpt lat="43.82215" lon="5.38778">
        <ele>439.3</ele>
        <time>2021-02-26T09:05:57Z</time>
      </trkpt>
      <trkpt lat="43.82216" lon="5.38793">
        <ele>440.31</ele>
        <time>2021-02-26T09:06:11Z</time>
      </trkpt>
      <trkpt lat="43.82217" lon="5.38794">
        <ele>440.27</ele>
        <time>2021-02-26T09:06:17Z</time>
      </trkpt>
      <trkpt lat="43.82218" lon="5.38821">
        <ele>442.42</ele>
        <time>2021-02-26T09:06:37Z</time>
      </trkpt>
      <trkpt lat="43.82218" lon="5.3884">
        <ele>443.67</ele>
        <time>2021-02-26T09:06:53Z</time>
      </trkpt>
      <trkpt lat="43.82221" lon="5.38855">
        <ele>446.1</ele>
        <time>2021-02-26T09:07:07Z</time>
      </trkpt>
      <trkpt lat="43.82224" lon="5.38869">
        <ele>447.28</ele>
        <time>2021-02-26T09:07:22Z</time>
      </trkpt>
      <trkpt lat="43.82227" lon="5.38883">
        <ele>449.49</ele>
        <time>2021-02-26T09:07:35Z</time>
      </trkpt>
      <trkpt lat="43.8223" lon="5.38897">
        <ele>449.59</ele>
        <time>2021-02-26T09:07:49Z</time>
      </trkpt>
      <trkpt lat="43.82231" lon="5.38899">
        <ele>449.76</ele>
        <time>2021-02-26T09:08:06Z</time>
      </trkpt>
      <trkpt lat="43.82231" lon="5.38908">
        <ele>450.93</ele>
        <time>2021-02-26T09:08:25Z</time>
      </trkpt>
      <trkpt lat="43.8223" lon="5.38922">
        <ele>451.47</ele>
        <time>2021-02-26T09:08:38Z</time>
      </trkpt>
      <trkpt lat="43.82231" lon="5.38922">
        <ele>452.53</ele>
        <time>2021-02-26T09:08:43Z</time>
      </trkpt>
      <trkpt lat="43.82229" lon="5.38937">
        <ele>453.2</ele>
        <time>2021-02-26T09:09:00Z</time>
      </trkpt>
      <trkpt lat="43.82232" lon="5.38953">
        <ele>454.48</ele>
        <time>2021-02-26T09:09:17Z</time>
      </trkpt>
      <trkpt lat="43.82242" lon="5.38959">
        <ele>455.97</ele>
        <time>2021-02-26T09:09:38Z</time>
      </trkpt>
      <trkpt lat="43.82251" lon="5.38957">
        <ele>459.03</ele>
        <time>2021-02-26T09:09:56Z</time>
      </trkpt>
      <trkpt lat="43.82261" lon="5.38954">
        <ele>459.79</ele>
        <time>2021-02-26T09:10:16Z</time>
      </trkpt>
      <trkpt lat="43.82271" lon="5.38952">
        <ele>461.3</ele>
        <time>2021-02-26T09:10:35Z</time>
      </trkpt>
      <trkpt lat="43.82278" lon="5.38953">
        <ele>462.98</ele>
        <time>2021-02-26T09:10:47Z</time>
      </trkpt>
      <trkpt lat="43.82288" lon="5.38955">
        <ele>464.1</ele>
        <time>2021-02-26T09:11:04Z</time>
      </trkpt>
      <trkpt lat="43.82299" lon="5.38962">
        <ele>466.24</ele>
        <time>2021-02-26T09:11:24Z</time>
      </trkpt>
      <trkpt lat="43.82304" lon="5.38975">
        <ele>466.79</ele>
        <time>2021-02-26T09:11:39Z</time>
      </trkpt>
      <trkpt lat="43.82308" lon="5.38984">
        <ele>467.28</ele>
        <time>2021-02-26T09:11:47Z</time>
      </trkpt>
      <trkpt lat="43.82315" lon="5.38994">
        <ele>467.7</ele>
        <time>2021-02-26T09:12:03Z</time>
      </trkpt>
      <trkpt lat="43.82326" lon="5.39003">
        <ele>468.35</ele>
        <time>2021-02-26T09:12:22Z</time>
      </trkpt>
      <trkpt lat="43.82337" lon="5.39009">
        <ele>469.84</ele>
        <time>2021-02-26T09:12:39Z</time>
      </trkpt>
      <trkpt lat="43.82351" lon="5.39013">
        <ele>469.94</ele>
        <time>2021-02-26T09:12:58Z</time>
      </trkpt>
      <trkpt lat="43.82369" lon="5.39014">
        <ele>470.6</ele>
        <time>2021-02-26T09:13:18Z</time>
      </trkpt>
      <trkpt lat="43.82384" lon="5.39014">
        <ele>472.91</ele>
        <time>2021-02-26T09:13:39Z</time>
      </trkpt>
      <trkpt lat="43.82396" lon="5.39014">
        <ele>474.75</ele>
        <time>2021-02-26T09:13:57Z</time>
      </trkpt>
      <trkpt lat="43.82409" lon="5.39013">
        <ele>478.15</ele>
        <time>2021-02-26T09:14:17Z</time>
      </trkpt>
      <trkpt lat="43.82421" lon="5.39013">
        <ele>477.08</ele>
        <time>2021-02-26T09:14:34Z</time>
      </trkpt>
      <trkpt lat="43.82438" lon="5.3901">
        <ele>476.51</ele>
        <time>2021-02-26T09:14:54Z</time>
      </trkpt>
      <trkpt lat="43.8244" lon="5.3901">
        <ele>476.52</ele>
        <time>2021-02-26T09:15:13Z</time>
      </trkpt>
      <trkpt lat="43.82449" lon="5.39017">
        <ele>475.92</ele>
        <time>2021-02-26T09:15:32Z</time>
      </trkpt>
      <trkpt lat="43.82452" lon="5.39017">
        <ele>475.1</ele>
        <time>2021-02-26T09:15:48Z</time>
      </trkpt>
      <trkpt lat="43.82454" lon="5.39016">
        <ele>474.46</ele>
        <time>2021-02-26T09:15:52Z</time>
      </trkpt>
      <trkpt lat="43.82455" lon="5.39016">
        <ele>475.24</ele>
        <time>2021-02-26T09:16:15Z</time>
      </trkpt>
      <trkpt lat="43.82455" lon="5.39017">
        <ele>475.11</ele>
        <time>2021-02-26T09:16:16Z</time>
      </trkpt>
      <trkpt lat="43.82449" lon="5.39027">
        <ele>476.57</ele>
        <time>2021-02-26T09:16:32Z</time>
      </trkpt>
      <trkpt lat="43.82452" lon="5.39039">
        <ele>477.56</ele>
        <time>2021-02-26T09:16:44Z</time>
      </trkpt>
      <trkpt lat="43.82457" lon="5.3905">
        <ele>478.26</ele>
        <time>2021-02-26T09:16:56Z</time>
      </trkpt>
      <trkpt lat="43.82461" lon="5.39066">
        <ele>479.05</ele>
        <time>2021-02-26T09:17:12Z</time>
      </trkpt>
      <trkpt lat="43.82463" lon="5.39083">
        <ele>479.13</ele>
        <time>2021-02-26T09:17:28Z</time>
      </trkpt>
      <trkpt lat="43.82461" lon="5.391">
        <ele>479.7</ele>
        <time>2021-02-26T09:17:45Z</time>
      </trkpt>
      <trkpt lat="43.82461" lon="5.39102">
        <ele>479.71</ele>
        <time>2021-02-26T09:17:47Z</time>
      </trkpt>
      <trkpt lat="43.82458" lon="5.39126">
        <ele>479.18</ele>
        <time>2021-02-26T09:18:06Z</time>
      </trkpt>
      <trkpt lat="43.82458" lon="5.39147">
        <ele>479.22</ele>
        <time>2021-02-26T09:18:24Z</time>
      </trkpt>
      <trkpt lat="43.82459" lon="5.39165">
        <ele>479.89</ele>
        <time>2021-02-26T09:18:41Z</time>
      </trkpt>
      <trkpt lat="43.8246" lon="5.39185">
        <ele>479.52</ele>
        <time>2021-02-26T09:18:59Z</time>
      </trkpt>
      <trkpt lat="43.82463" lon="5.39196">
        <ele>480.14</ele>
        <time>2021-02-26T09:19:10Z</time>
      </trkpt>
      <trkpt lat="43.82463" lon="5.39214">
        <ele>481.54</ele>
        <time>2021-02-26T09:19:29Z</time>
      </trkpt>
      <trkpt lat="43.82464" lon="5.39219">
        <ele>481.29</ele>
        <time>2021-02-26T09:19:47Z</time>
      </trkpt>
      <trkpt lat="43.82464" lon="5.39235">
        <ele>482.46</ele>
        <time>2021-02-26T09:20:17Z</time>
      </trkpt>
      <trkpt lat="43.82464" lon="5.39253">
        <ele>482.34</ele>
        <time>2021-02-26T09:20:33Z</time>
      </trkpt>
      <trkpt lat="43.82462" lon="5.39265">
        <ele>482.44</ele>
        <time>2021-02-26T09:20:51Z</time>
      </trkpt>
      <trkpt lat="43.82463" lon="5.3928">
        <ele>482.41</ele>
        <time>2021-02-26T09:21:11Z</time>
      </trkpt>
      <trkpt lat="43.82466" lon="5.39303">
        <ele>481.63</ele>
        <time>2021-02-26T09:21:30Z</time>
      </trkpt>
      <trkpt lat="43.82468" lon="5.39323">
        <ele>480.16</ele>
        <time>2021-02-26T09:21:49Z</time>
      </trkpt>
      <trkpt lat="43.82469" lon="5.39342">
        <ele>480.34</ele>
        <time>2021-02-26T09:22:06Z</time>
      </trkpt>
      <trkpt lat="43.82473" lon="5.39356">
        <ele>480.19</ele>
        <time>2021-02-26T09:22:27Z</time>
      </trkpt>
      <trkpt lat="43.82473" lon="5.39358">
        <ele>479.56</ele>
        <time>2021-02-26T09:22:29Z</time>
      </trkpt>
      <trkpt lat="43.82474" lon="5.39373">
        <ele>480.43</ele>
        <time>2021-02-26T09:22:45Z</time>
      </trkpt>
      <trkpt lat="43.82472" lon="5.39387">
        <ele>481.91</ele>
        <time>2021-02-26T09:22:58Z</time>
      </trkpt>
      <trkpt lat="43.82473" lon="5.39399">
        <ele>482.41</ele>
        <time>2021-02-26T09:23:13Z</time>
      </trkpt>
      <trkpt lat="43.82468" lon="5.39414">
        <ele>483.4</ele>
        <time>2021-02-26T09:23:28Z</time>
      </trkpt>
      <trkpt lat="43.82466" lon="5.39433">
        <ele>484.08</ele>
        <time>2021-02-26T09:23:49Z</time>
      </trkpt>
      <trkpt lat="43.82463" lon="5.39448">
        <ele>486.01</ele>
        <time>2021-02-26T09:24:07Z</time>
      </trkpt>
      <trkpt lat="43.82462" lon="5.3945">
        <ele>485.19</ele>
        <time>2021-02-26T09:24:09Z</time>
      </trkpt>
      <trkpt lat="43.82463" lon="5.3946">
        <ele>486.08</ele>
        <time>2021-02-26T09:24:27Z</time>
      </trkpt>
      <trkpt lat="43.82461" lon="5.39476">
        <ele>486</ele>
        <time>2021-02-26T09:24:45Z</time>
      </trkpt>
      <trkpt lat="43.8246" lon="5.39491">
        <ele>487.16</ele>
        <time>2021-02-26T09:25:02Z</time>
      </trkpt>
      <trkpt lat="43.82459" lon="5.39492">
        <ele>487.64</ele>
        <time>2021-02-26T09:25:04Z</time>
      </trkpt>
      <trkpt lat="43.82457" lon="5.39503">
        <ele>489.2</ele>
        <time>2021-02-26T09:25:21Z</time>
      </trkpt>
      <trkpt lat="43.82457" lon="5.39512">
        <ele>489.02</ele>
        <time>2021-02-26T09:25:41Z</time>
      </trkpt>
      <trkpt lat="43.82455" lon="5.39515">
        <ele>488.56</ele>
        <time>2021-02-26T09:25:47Z</time>
      </trkpt>
      <trkpt lat="43.82458" lon="5.39531">
        <ele>489.64</ele>
        <time>2021-02-26T09:26:08Z</time>
      </trkpt>
      <trkpt lat="43.82467" lon="5.39535">
        <ele>489.71</ele>
        <time>2021-02-26T09:26:26Z</time>
      </trkpt>
      <trkpt lat="43.8248" lon="5.39532">
        <ele>491.51</ele>
        <time>2021-02-26T09:26:44Z</time>
      </trkpt>
      <trkpt lat="43.82491" lon="5.39526">
        <ele>492.02</ele>
        <time>2021-02-26T09:27:03Z</time>
      </trkpt>
      <trkpt lat="43.825" lon="5.39519">
        <ele>493.66</ele>
        <time>2021-02-26T09:27:19Z</time>
      </trkpt>
      <trkpt lat="43.82514" lon="5.39503">
        <ele>495.97</ele>
        <time>2021-02-26T09:27:39Z</time>
      </trkpt>
      <trkpt lat="43.82524" lon="5.39488">
        <ele>499.01</ele>
        <time>2021-02-26T09:27:57Z</time>
      </trkpt>
      <trkpt lat="43.82525" lon="5.39485">
        <ele>497.86</ele>
        <time>2021-02-26T09:28:16Z</time>
      </trkpt>
      <trkpt lat="43.82526" lon="5.39485">
        <ele>496.62</ele>
        <time>2021-02-26T09:28:19Z</time>
      </trkpt>
      <trkpt lat="43.82523" lon="5.39484">
        <ele>497.09</ele>
        <time>2021-02-26T09:28:46Z</time>
      </trkpt>
      <trkpt lat="43.8252" lon="5.39487">
        <ele>496.65</ele>
        <time>2021-02-26T09:29:09Z</time>
      </trkpt>
      <trkpt lat="43.82522" lon="5.39488">
        <ele>497.82</ele>
        <time>2021-02-26T09:29:33Z</time>
      </trkpt>
      <trkpt lat="43.82525" lon="5.39488">
        <ele>498.33</ele>
        <time>2021-02-26T09:30:00Z</time>
      </trkpt>
      <trkpt lat="43.82524" lon="5.39499">
        <ele>499.62</ele>
        <time>2021-02-26T09:30:17Z</time>
      </trkpt>
      <trkpt lat="43.82519" lon="5.39506">
        <ele>501.43</ele>
        <time>2021-02-26T09:30:39Z</time>
      </trkpt>
      <trkpt lat="43.82516" lon="5.3952">
        <ele>504.48</ele>
        <time>2021-02-26T09:30:58Z</time>
      </trkpt>
      <trkpt lat="43.8251" lon="5.39535">
        <ele>505.11</ele>
        <time>2021-02-26T09:31:20Z</time>
      </trkpt>
      <trkpt lat="43.82506" lon="5.39552">
        <ele>507.51</ele>
        <time>2021-02-26T09:31:44Z</time>
      </trkpt>
      <trkpt lat="43.82503" lon="5.39568">
        <ele>509.97</ele>
        <time>2021-02-26T09:32:10Z</time>
      </trkpt>
      <trkpt lat="43.825" lon="5.39579">
        <ele>511.86</ele>
        <time>2021-02-26T09:32:33Z</time>
      </trkpt>
      <trkpt lat="43.82498" lon="5.39594">
        <ele>513.53</ele>
        <time>2021-02-26T09:32:58Z</time>
      </trkpt>
      <trkpt lat="43.82496" lon="5.39596">
        <ele>512.96</ele>
        <time>2021-02-26T09:33:03Z</time>
      </trkpt>
      <trkpt lat="43.82497" lon="5.39601">
        <ele>514.17</ele>
        <time>2021-02-26T09:33:10Z</time>
      </trkpt>
      <trkpt lat="43.82497" lon="5.3961">
        <ele>516.71</ele>
        <time>2021-02-26T09:33:28Z</time>
      </trkpt>
      <trkpt lat="43.82504" lon="5.39592">
        <ele>516.07</ele>
        <time>2021-02-26T09:33:51Z</time>
      </trkpt>
      <trkpt lat="43.82512" lon="5.39575">
        <ele>516.88</ele>
        <time>2021-02-26T09:34:19Z</time>
      </trkpt>
      <trkpt lat="43.82525" lon="5.39563">
        <ele>517.48</ele>
        <time>2021-02-26T09:34:39Z</time>
      </trkpt>
      <trkpt lat="43.82531" lon="5.39553">
        <ele>518.38</ele>
        <time>2021-02-26T09:34:53Z</time>
      </trkpt>
      <trkpt lat="43.82533" lon="5.39549">
        <ele>518.36</ele>
        <time>2021-02-26T09:35:15Z</time>
      </trkpt>
      <trkpt lat="43.82534" lon="5.39546">
        <ele>518.76</ele>
        <time>2021-02-26T09:35:40Z</time>
      </trkpt>
      <trkpt lat="43.82535" lon="5.39543">
        <ele>519.01</ele>
        <time>2021-02-26T09:35:53Z</time>
      </trkpt>
      <trkpt lat="43.82544" lon="5.39533">
        <ele>520.45</ele>
        <time>2021-02-26T09:36:09Z</time>
      </trkpt>
      <trkpt lat="43.8255" lon="5.39528">
        <ele>521.67</ele>
        <time>2021-02-26T09:36:31Z</time>
      </trkpt>
      <trkpt lat="43.82557" lon="5.39523">
        <ele>522.51</ele>
        <time>2021-02-26T09:36:51Z</time>
      </trkpt>
      <trkpt lat="43.82557" lon="5.3952">
        <ele>522.85</ele>
        <time>2021-02-26T09:37:30Z</time>
      </trkpt>
      <trkpt lat="43.82565" lon="5.39514">
        <ele>524.54</ele>
        <time>2021-02-26T09:37:58Z</time>
      </trkpt>
      <trkpt lat="43.8257" lon="5.39512">
        <ele>524.83</ele>
        <time>2021-02-26T09:38:19Z</time>
      </trkpt>
      <trkpt lat="43.82575" lon="5.39508">
        <ele>526.73</ele>
        <time>2021-02-26T09:38:42Z</time>
      </trkpt>
      <trkpt lat="43.8258" lon="5.39498">
        <ele>526.66</ele>
        <time>2021-02-26T09:38:57Z</time>
      </trkpt>
      <trkpt lat="43.82581" lon="5.39474">
        <ele>526.03</ele>
        <time>2021-02-26T09:39:17Z</time>
      </trkpt>
      <trkpt lat="43.82581" lon="5.39453">
        <ele>525.05</ele>
        <time>2021-02-26T09:39:34Z</time>
      </trkpt>
      <trkpt lat="43.8258" lon="5.39428">
        <ele>524.3</ele>
        <time>2021-02-26T09:39:51Z</time>
      </trkpt>
      <trkpt lat="43.8258" lon="5.39405">
        <ele>523.76</ele>
        <time>2021-02-26T09:40:08Z</time>
      </trkpt>
      <trkpt lat="43.82582" lon="5.39385">
        <ele>522.58</ele>
        <time>2021-02-26T09:40:23Z</time>
      </trkpt>
      <trkpt lat="43.82582" lon="5.39376">
        <ele>522.33</ele>
        <time>2021-02-26T09:40:29Z</time>
      </trkpt>
      <trkpt lat="43.82582" lon="5.3937">
        <ele>522.12</ele>
        <time>2021-02-26T09:40:35Z</time>
      </trkpt>
      <trkpt lat="43.82577" lon="5.39341">
        <ele>521.97</ele>
        <time>2021-02-26T09:40:52Z</time>
      </trkpt>
      <trkpt lat="43.82576" lon="5.39335">
        <ele>522.15</ele>
        <time>2021-02-26T09:40:56Z</time>
      </trkpt>
      <trkpt lat="43.82571" lon="5.39305">
        <ele>521.93</ele>
        <time>2021-02-26T09:41:17Z</time>
      </trkpt>
      <trkpt lat="43.82571" lon="5.39289">
        <ele>522.55</ele>
        <time>2021-02-26T09:41:34Z</time>
      </trkpt>
      <trkpt lat="43.82571" lon="5.39287">
        <ele>522.37</ele>
        <time>2021-02-26T09:42:14Z</time>
      </trkpt>
      <trkpt lat="43.82571" lon="5.39288">
        <ele>521.87</ele>
        <time>2021-02-26T09:43:04Z</time>
      </trkpt>
      <trkpt lat="43.82574" lon="5.39275">
        <ele>523.13</ele>
        <time>2021-02-26T09:43:26Z</time>
      </trkpt>
      <trkpt lat="43.82577" lon="5.3927">
        <ele>522.75</ele>
        <time>2021-02-26T09:43:45Z</time>
      </trkpt>
      <trkpt lat="43.82577" lon="5.39268">
        <ele>522.27</ele>
        <time>2021-02-26T09:44:24Z</time>
      </trkpt>
      <trkpt lat="43.82581" lon="5.39254">
        <ele>520.66</ele>
        <time>2021-02-26T09:44:40Z</time>
      </trkpt>
      <trkpt lat="43.82584" lon="5.39246">
        <ele>519.27</ele>
        <time>2021-02-26T09:44:49Z</time>
      </trkpt>
      <trkpt lat="43.82601" lon="5.39238">
        <ele>518.83</ele>
        <time>2021-02-26T09:45:09Z</time>
      </trkpt>
      <trkpt lat="43.82621" lon="5.39237">
        <ele>518.6</ele>
        <time>2021-02-26T09:45:30Z</time>
      </trkpt>
      <trkpt lat="43.82637" lon="5.39247">
        <ele>518.5</ele>
        <time>2021-02-26T09:45:50Z</time>
      </trkpt>
      <trkpt lat="43.82641" lon="5.39249">
        <ele>518.28</ele>
        <time>2021-02-26T09:45:55Z</time>
      </trkpt>
      <trkpt lat="43.82652" lon="5.39263">
        <ele>519.62</ele>
        <time>2021-02-26T09:46:13Z</time>
      </trkpt>
      <trkpt lat="43.82659" lon="5.39283">
        <ele>519.61</ele>
        <time>2021-02-26T09:46:31Z</time>
      </trkpt>
      <trkpt lat="43.8266" lon="5.39294">
        <ele>520.4</ele>
        <time>2021-02-26T09:46:40Z</time>
      </trkpt>
      <trkpt lat="43.82661" lon="5.3931">
        <ele>520.58</ele>
        <time>2021-02-26T09:46:56Z</time>
      </trkpt>
      <trkpt lat="43.82661" lon="5.39311">
        <ele>520.33</ele>
        <time>2021-02-26T09:46:57Z</time>
      </trkpt>
      <trkpt lat="43.82661" lon="5.39315">
        <ele>520.95</ele>
        <time>2021-02-26T09:47:00Z</time>
      </trkpt>
      <trkpt lat="43.8266" lon="5.39337">
        <ele>521.06</ele>
        <time>2021-02-26T09:47:18Z</time>
      </trkpt>
      <trkpt lat="43.82659" lon="5.39359">
        <ele>520.98</ele>
        <time>2021-02-26T09:47:36Z</time>
      </trkpt>
      <trkpt lat="43.82658" lon="5.39373">
        <ele>520.92</ele>
        <time>2021-02-26T09:47:53Z</time>
      </trkpt>
      <trkpt lat="43.82655" lon="5.39398">
        <ele>520.96</ele>
        <time>2021-02-26T09:48:11Z</time>
      </trkpt>
      <trkpt lat="43.82656" lon="5.39425">
        <ele>519.32</ele>
        <time>2021-02-26T09:48:29Z</time>
      </trkpt>
      <trkpt lat="43.82657" lon="5.39441">
        <ele>520.27</ele>
        <time>2021-02-26T09:48:42Z</time>
      </trkpt>
      <trkpt lat="43.8266" lon="5.39452">
        <ele>519.22</ele>
        <time>2021-02-26T09:48:49Z</time>
      </trkpt>
      <trkpt lat="43.82661" lon="5.39472">
        <ele>518.57</ele>
        <time>2021-02-26T09:49:07Z</time>
      </trkpt>
      <trkpt lat="43.8266" lon="5.39474">
        <ele>518.26</ele>
        <time>2021-02-26T09:49:29Z</time>
      </trkpt>
      <trkpt lat="43.82659" lon="5.39473">
        <ele>518.51</ele>
        <time>2021-02-26T09:49:50Z</time>
      </trkpt>
      <trkpt lat="43.8266" lon="5.39474">
        <ele>518.92</ele>
        <time>2021-02-26T09:49:52Z</time>
      </trkpt>
      <trkpt lat="43.82662" lon="5.39495">
        <ele>518.35</ele>
        <time>2021-02-26T09:50:14Z</time>
      </trkpt>
      <trkpt lat="43.82663" lon="5.39498">
        <ele>517.72</ele>
        <time>2021-02-26T09:50:21Z</time>
      </trkpt>
      <trkpt lat="43.82662" lon="5.39513">
        <ele>518.26</ele>
        <time>2021-02-26T09:50:36Z</time>
      </trkpt>
      <trkpt lat="43.82661" lon="5.39518">
        <ele>519.32</ele>
        <time>2021-02-26T09:50:54Z</time>
      </trkpt>
      <trkpt lat="43.82662" lon="5.39519">
        <ele>519.14</ele>
        <time>2021-02-26T09:51:37Z</time>
      </trkpt>
      <trkpt lat="43.82662" lon="5.3953">
        <ele>519.9</ele>
        <time>2021-02-26T09:51:44Z</time>
      </trkpt>
      <trkpt lat="43.82659" lon="5.39548">
        <ele>519.13</ele>
        <time>2021-02-26T09:51:59Z</time>
      </trkpt>
      <trkpt lat="43.82657" lon="5.39573">
        <ele>519.21</ele>
        <time>2021-02-26T09:52:18Z</time>
      </trkpt>
      <trkpt lat="43.82657" lon="5.39581">
        <ele>519.06</ele>
        <time>2021-02-26T09:52:38Z</time>
      </trkpt>
      <trkpt lat="43.82652" lon="5.39605">
        <ele>516.99</ele>
        <time>2021-02-26T09:52:58Z</time>
      </trkpt>
      <trkpt lat="43.82645" lon="5.39625">
        <ele>516.44</ele>
        <time>2021-02-26T09:53:14Z</time>
      </trkpt>
      <trkpt lat="43.82649" lon="5.39643">
        <ele>515.79</ele>
        <time>2021-02-26T09:53:31Z</time>
      </trkpt>
      <trkpt lat="43.82654" lon="5.39648">
        <ele>516</ele>
        <time>2021-02-26T09:53:45Z</time>
      </trkpt>
      <trkpt lat="43.82662" lon="5.39657">
        <ele>518.11</ele>
        <time>2021-02-26T09:54:00Z</time>
      </trkpt>
      <trkpt lat="43.82663" lon="5.39667">
        <ele>519.25</ele>
        <time>2021-02-26T09:54:14Z</time>
      </trkpt>
      <trkpt lat="43.8266" lon="5.39682">
        <ele>521.78</ele>
        <time>2021-02-26T09:54:31Z</time>
      </trkpt>
      <trkpt lat="43.82658" lon="5.39697">
        <ele>523.68</ele>
        <time>2021-02-26T09:54:49Z</time>
      </trkpt>
      <trkpt lat="43.82654" lon="5.3971">
        <ele>525.6</ele>
        <time>2021-02-26T09:55:08Z</time>
      </trkpt>
      <trkpt lat="43.82653" lon="5.39724">
        <ele>528.85</ele>
        <time>2021-02-26T09:55:27Z</time>
      </trkpt>
      <trkpt lat="43.82653" lon="5.39725">
        <ele>528.21</ele>
        <time>2021-02-26T09:55:41Z</time>
      </trkpt>
      <trkpt lat="43.82648" lon="5.39739">
        <ele>530.48</ele>
        <time>2021-02-26T09:56:00Z</time>
      </trkpt>
      <trkpt lat="43.82639" lon="5.39759">
        <ele>531.27</ele>
        <time>2021-02-26T09:56:20Z</time>
      </trkpt>
      <trkpt lat="43.82634" lon="5.39773">
        <ele>533.08</ele>
        <time>2021-02-26T09:56:37Z</time>
      </trkpt>
      <trkpt lat="43.82631" lon="5.39781">
        <ele>534.1</ele>
        <time>2021-02-26T09:56:54Z</time>
      </trkpt>
      <trkpt lat="43.82633" lon="5.39786">
        <ele>535.28</ele>
        <time>2021-02-26T09:57:13Z</time>
      </trkpt>
      <trkpt lat="43.82638" lon="5.39797">
        <ele>537.11</ele>
        <time>2021-02-26T09:57:30Z</time>
      </trkpt>
      <trkpt lat="43.82637" lon="5.39811">
        <ele>538.59</ele>
        <time>2021-02-26T09:57:48Z</time>
      </trkpt>
      <trkpt lat="43.82634" lon="5.39825">
        <ele>538.43</ele>
        <time>2021-02-26T09:58:02Z</time>
      </trkpt>
      <trkpt lat="43.82632" lon="5.39834">
        <ele>538.75</ele>
        <time>2021-02-26T09:58:19Z</time>
      </trkpt>
      <trkpt lat="43.82627" lon="5.3985">
        <ele>539.33</ele>
        <time>2021-02-26T09:58:41Z</time>
      </trkpt>
      <trkpt lat="43.8262" lon="5.39865">
        <ele>540.91</ele>
        <time>2021-02-26T09:58:59Z</time>
      </trkpt>
      <trkpt lat="43.82612" lon="5.39885">
        <ele>542.53</ele>
        <time>2021-02-26T09:59:17Z</time>
      </trkpt>
      <trkpt lat="43.82609" lon="5.39899">
        <ele>542.97</ele>
        <time>2021-02-26T09:59:34Z</time>
      </trkpt>
      <trkpt lat="43.82606" lon="5.39905">
        <ele>543.52</ele>
        <time>2021-02-26T09:59:50Z</time>
      </trkpt>
      <trkpt lat="43.82597" lon="5.39917">
        <ele>544.92</ele>
        <time>2021-02-26T10:00:09Z</time>
      </trkpt>
      <trkpt lat="43.82585" lon="5.3993">
        <ele>547.27</ele>
        <time>2021-02-26T10:00:30Z</time>
      </trkpt>
      <trkpt lat="43.82579" lon="5.39935">
        <ele>548.98</ele>
        <time>2021-02-26T10:00:41Z</time>
      </trkpt>
      <trkpt lat="43.82578" lon="5.39942">
        <ele>548.78</ele>
        <time>2021-02-26T10:00:59Z</time>
      </trkpt>
      <trkpt lat="43.82579" lon="5.39942">
        <ele>548.95</ele>
        <time>2021-02-26T10:01:02Z</time>
      </trkpt>
      <trkpt lat="43.82597" lon="5.39936">
        <ele>549.77</ele>
        <time>2021-02-26T10:01:23Z</time>
      </trkpt>
      <trkpt lat="43.82608" lon="5.39929">
        <ele>550.76</ele>
        <time>2021-02-26T10:01:37Z</time>
      </trkpt>
      <trkpt lat="43.82617" lon="5.39919">
        <ele>550.82</ele>
        <time>2021-02-26T10:01:51Z</time>
      </trkpt>
      <trkpt lat="43.82622" lon="5.3991">
        <ele>551.16</ele>
        <time>2021-02-26T10:02:00Z</time>
      </trkpt>
      <trkpt lat="43.8263" lon="5.39893">
        <ele>554.35</ele>
        <time>2021-02-26T10:02:18Z</time>
      </trkpt>
      <trkpt lat="43.8263" lon="5.39889">
        <ele>553.14</ele>
        <time>2021-02-26T10:02:37Z</time>
      </trkpt>
      <trkpt lat="43.8263" lon="5.39888">
        <ele>556.55</ele>
        <time>2021-02-26T10:02:44Z</time>
      </trkpt>
      <trkpt lat="43.8263" lon="5.39888">
        <ele>553.19</ele>
        <time>2021-02-26T10:02:46Z</time>
      </trkpt>
      <trkpt lat="43.8263" lon="5.39886">
        <ele>553.22</ele>
        <time>2021-02-26T10:02:52Z</time>
      </trkpt>
      <trkpt lat="43.82631" lon="5.39883">
        <ele>553.12</ele>
        <time>2021-02-26T10:02:55Z</time>
      </trkpt>
      <trkpt lat="43.82637" lon="5.39853">
        <ele>551.53</ele>
        <time>2021-02-26T10:03:17Z</time>
      </trkpt>
      <trkpt lat="43.82651" lon="5.39824">
        <ele>549.59</ele>
        <time>2021-02-26T10:03:41Z</time>
      </trkpt>
      <trkpt lat="43.82657" lon="5.39816">
        <ele>548.99</ele>
        <time>2021-02-26T10:03:49Z</time>
      </trkpt>
      <trkpt lat="43.82671" lon="5.39791">
        <ele>548.53</ele>
        <time>2021-02-26T10:04:10Z</time>
      </trkpt>
      <trkpt lat="43.82684" lon="5.39761">
        <ele>547.09</ele>
        <time>2021-02-26T10:04:33Z</time>
      </trkpt>
      <trkpt lat="43.82694" lon="5.39738">
        <ele>546.15</ele>
        <time>2021-02-26T10:04:52Z</time>
      </trkpt>
      <trkpt lat="43.82704" lon="5.39707">
        <ele>544.13</ele>
        <time>2021-02-26T10:05:15Z</time>
      </trkpt>
      <trkpt lat="43.8271" lon="5.39696">
        <ele>544.57</ele>
        <time>2021-02-26T10:05:29Z</time>
      </trkpt>
      <trkpt lat="43.82711" lon="5.39695">
        <ele>543.84</ele>
        <time>2021-02-26T10:05:31Z</time>
      </trkpt>
      <trkpt lat="43.82715" lon="5.39689">
        <ele>544.36</ele>
        <time>2021-02-26T10:05:36Z</time>
      </trkpt>
      <trkpt lat="43.82731" lon="5.39671">
        <ele>543.95</ele>
        <time>2021-02-26T10:05:55Z</time>
      </trkpt>
      <trkpt lat="43.82745" lon="5.3965">
        <ele>542.14</ele>
        <time>2021-02-26T10:06:15Z</time>
      </trkpt>
      <trkpt lat="43.82761" lon="5.39626">
        <ele>541.41</ele>
        <time>2021-02-26T10:06:37Z</time>
      </trkpt>
      <trkpt lat="43.82774" lon="5.39597">
        <ele>541.05</ele>
        <time>2021-02-26T10:06:59Z</time>
      </trkpt>
      <trkpt lat="43.82779" lon="5.3958">
        <ele>540.24</ele>
        <time>2021-02-26T10:07:13Z</time>
      </trkpt>
      <trkpt lat="43.82782" lon="5.39566">
        <ele>539.81</ele>
        <time>2021-02-26T10:07:24Z</time>
      </trkpt>
      <trkpt lat="43.82794" lon="5.39545">
        <ele>539.42</ele>
        <time>2021-02-26T10:07:43Z</time>
      </trkpt>
      <trkpt lat="43.82803" lon="5.39535">
        <ele>538.65</ele>
        <time>2021-02-26T10:07:58Z</time>
      </trkpt>
      <trkpt lat="43.82807" lon="5.39534">
        <ele>538.78</ele>
        <time>2021-02-26T10:08:02Z</time>
      </trkpt>
      <trkpt lat="43.82826" lon="5.39536">
        <ele>538.82</ele>
        <time>2021-02-26T10:08:21Z</time>
      </trkpt>
      <trkpt lat="43.82846" lon="5.3955">
        <ele>539.71</ele>
        <time>2021-02-26T10:08:45Z</time>
      </trkpt>
      <trkpt lat="43.82868" lon="5.39569">
        <ele>539.99</ele>
        <time>2021-02-26T10:09:10Z</time>
      </trkpt>
      <trkpt lat="43.82886" lon="5.3959">
        <ele>540.04</ele>
        <time>2021-02-26T10:09:33Z</time>
      </trkpt>
      <trkpt lat="43.82905" lon="5.39616">
        <ele>538.96</ele>
        <time>2021-02-26T10:09:58Z</time>
      </trkpt>
      <trkpt lat="43.82925" lon="5.3964">
        <ele>538.96</ele>
        <time>2021-02-26T10:10:24Z</time>
      </trkpt>
      <trkpt lat="43.82939" lon="5.39649">
        <ele>539.37</ele>
        <time>2021-02-26T10:10:43Z</time>
      </trkpt>
      <trkpt lat="43.82942" lon="5.39649">
        <ele>538.6</ele>
        <time>2021-02-26T10:10:53Z</time>
      </trkpt>
      <trkpt lat="43.82961" lon="5.39662">
        <ele>538.78</ele>
        <time>2021-02-26T10:11:16Z</time>
      </trkpt>
      <trkpt lat="43.82975" lon="5.39666">
        <ele>538.71</ele>
        <time>2021-02-26T10:11:32Z</time>
      </trkpt>
      <trkpt lat="43.82977" lon="5.39667">
        <ele>538.99</ele>
        <time>2021-02-26T10:11:34Z</time>
      </trkpt>
      <trkpt lat="43.8299" lon="5.39677">
        <ele>538.33</ele>
        <time>2021-02-26T10:11:49Z</time>
      </trkpt>
      <trkpt lat="43.83004" lon="5.39695">
        <ele>537.81</ele>
        <time>2021-02-26T10:12:08Z</time>
      </trkpt>
      <trkpt lat="43.83014" lon="5.39702">
        <ele>537.15</ele>
        <time>2021-02-26T10:12:28Z</time>
      </trkpt>
      <trkpt lat="43.83016" lon="5.39705">
        <ele>534.06</ele>
        <time>2021-02-26T10:12:41Z</time>
      </trkpt>
      <trkpt lat="43.83018" lon="5.39708">
        <ele>533.95</ele>
        <time>2021-02-26T10:13:00Z</time>
      </trkpt>
      <trkpt lat="43.83022" lon="5.39701">
        <ele>531.72</ele>
        <time>2021-02-26T10:13:15Z</time>
      </trkpt>
      <trkpt lat="43.83026" lon="5.39693">
        <ele>530.26</ele>
        <time>2021-02-26T10:13:29Z</time>
      </trkpt>
      <trkpt lat="43.83026" lon="5.39684">
        <ele>528.77</ele>
        <time>2021-02-26T10:13:44Z</time>
      </trkpt>
      <trkpt lat="43.83028" lon="5.39689">
        <ele>529.25</ele>
        <time>2021-02-26T10:14:00Z</time>
      </trkpt>
      <trkpt lat="43.83032" lon="5.3969">
        <ele>528.54</ele>
        <time>2021-02-26T10:14:14Z</time>
      </trkpt>
      <trkpt lat="43.83027" lon="5.39687">
        <ele>528.8</ele>
        <time>2021-02-26T10:14:37Z</time>
      </trkpt>
      <trkpt lat="43.83025" lon="5.3968">
        <ele>528.53</ele>
        <time>2021-02-26T10:14:50Z</time>
      </trkpt>
      <trkpt lat="43.83022" lon="5.39674">
        <ele>528.16</ele>
        <time>2021-02-26T10:15:06Z</time>
      </trkpt>
      <trkpt lat="43.83017" lon="5.39668">
        <ele>527.85</ele>
        <time>2021-02-26T10:15:18Z</time>
      </trkpt>
      <trkpt lat="43.83017" lon="5.39664">
        <ele>526.7</ele>
        <time>2021-02-26T10:15:36Z</time>
      </trkpt>
      <trkpt lat="43.83017" lon="5.39664">
        <ele>526.26</ele>
        <time>2021-02-26T10:15:52Z</time>
      </trkpt>
      <trkpt lat="43.83017" lon="5.39658">
        <ele>524.86</ele>
        <time>2021-02-26T10:16:05Z</time>
      </trkpt>
      <trkpt lat="43.83018" lon="5.3965">
        <ele>521.73</ele>
        <time>2021-02-26T10:16:16Z</time>
      </trkpt>
      <trkpt lat="43.8302" lon="5.39648">
        <ele>521.43</ele>
        <time>2021-02-26T10:16:30Z</time>
      </trkpt>
      <trkpt lat="43.8303" lon="5.39653">
        <ele>520.7</ele>
        <time>2021-02-26T10:16:49Z</time>
      </trkpt>
      <trkpt lat="43.83037" lon="5.39659">
        <ele>520.13</ele>
        <time>2021-02-26T10:17:04Z</time>
      </trkpt>
      <trkpt lat="43.83041" lon="5.39659">
        <ele>518.77</ele>
        <time>2021-02-26T10:17:19Z</time>
      </trkpt>
      <trkpt lat="43.83048" lon="5.39661">
        <ele>517.37</ele>
        <time>2021-02-26T10:17:31Z</time>
      </trkpt>
      <trkpt lat="43.83054" lon="5.39677">
        <ele>517.53</ele>
        <time>2021-02-26T10:17:47Z</time>
      </trkpt>
      <trkpt lat="43.8306" lon="5.39695">
        <ele>516.36</ele>
        <time>2021-02-26T10:18:05Z</time>
      </trkpt>
      <trkpt lat="43.8306" lon="5.39706">
        <ele>515.34</ele>
        <time>2021-02-26T10:18:19Z</time>
      </trkpt>
      <trkpt lat="43.83061" lon="5.39714">
        <ele>514.58</ele>
        <time>2021-02-26T10:18:31Z</time>
      </trkpt>
      <trkpt lat="43.83058" lon="5.39733">
        <ele>513.54</ele>
        <time>2021-02-26T10:18:46Z</time>
      </trkpt>
      <trkpt lat="43.83049" lon="5.39748">
        <ele>513.61</ele>
        <time>2021-02-26T10:19:04Z</time>
      </trkpt>
      <trkpt lat="43.83041" lon="5.39761">
        <ele>511.76</ele>
        <time>2021-02-26T10:19:19Z</time>
      </trkpt>
      <trkpt lat="43.83038" lon="5.39768">
        <ele>511.11</ele>
        <time>2021-02-26T10:19:35Z</time>
      </trkpt>
      <trkpt lat="43.83046" lon="5.39765">
        <ele>509.46</ele>
        <time>2021-02-26T10:20:00Z</time>
      </trkpt>
      <trkpt lat="43.83048" lon="5.39764">
        <ele>509.09</ele>
        <time>2021-02-26T10:20:02Z</time>
      </trkpt>
      <trkpt lat="43.83058" lon="5.39758">
        <ele>508.11</ele>
        <time>2021-02-26T10:20:16Z</time>
      </trkpt>
      <trkpt lat="43.83067" lon="5.39753">
        <ele>507.59</ele>
        <time>2021-02-26T10:20:29Z</time>
      </trkpt>
      <trkpt lat="43.83071" lon="5.39752">
        <ele>506.65</ele>
        <time>2021-02-26T10:20:32Z</time>
      </trkpt>
      <trkpt lat="43.83077" lon="5.3975">
        <ele>506.38</ele>
        <time>2021-02-26T10:20:50Z</time>
      </trkpt>
      <trkpt lat="43.83078" lon="5.39746">
        <ele>506.36</ele>
        <time>2021-02-26T10:21:02Z</time>
      </trkpt>
      <trkpt lat="43.83079" lon="5.39744">
        <ele>505.76</ele>
        <time>2021-02-26T10:21:04Z</time>
      </trkpt>
      <trkpt lat="43.83093" lon="5.39728">
        <ele>504.05</ele>
        <time>2021-02-26T10:21:22Z</time>
      </trkpt>
      <trkpt lat="43.83104" lon="5.39714">
        <ele>501.67</ele>
        <time>2021-02-26T10:21:40Z</time>
      </trkpt>
      <trkpt lat="43.83109" lon="5.39709">
        <ele>500.76</ele>
        <time>2021-02-26T10:21:55Z</time>
      </trkpt>
      <trkpt lat="43.83118" lon="5.397">
        <ele>499.55</ele>
        <time>2021-02-26T10:22:09Z</time>
      </trkpt>
      <trkpt lat="43.83129" lon="5.3969">
        <ele>497.67</ele>
        <time>2021-02-26T10:22:26Z</time>
      </trkpt>
      <trkpt lat="43.83135" lon="5.39681">
        <ele>497.78</ele>
        <time>2021-02-26T10:22:41Z</time>
      </trkpt>
      <trkpt lat="43.83139" lon="5.39675">
        <ele>497.2</ele>
        <time>2021-02-26T10:22:56Z</time>
      </trkpt>
      <trkpt lat="43.83141" lon="5.39668">
        <ele>496.03</ele>
        <time>2021-02-26T10:23:11Z</time>
      </trkpt>
      <trkpt lat="43.8314" lon="5.39672">
        <ele>496.83</ele>
        <time>2021-02-26T10:23:27Z</time>
      </trkpt>
      <trkpt lat="43.83141" lon="5.39675">
        <ele>497.24</ele>
        <time>2021-02-26T10:24:03Z</time>
      </trkpt>
      <trkpt lat="43.83145" lon="5.39671">
        <ele>496.36</ele>
        <time>2021-02-26T10:24:37Z</time>
      </trkpt>
      <trkpt lat="43.83146" lon="5.39661">
        <ele>495.37</ele>
        <time>2021-02-26T10:24:56Z</time>
      </trkpt>
      <trkpt lat="43.83146" lon="5.39659">
        <ele>495.63</ele>
        <time>2021-02-26T10:25:14Z</time>
      </trkpt>
      <trkpt lat="43.83148" lon="5.39657">
        <ele>493.65</ele>
        <time>2021-02-26T10:25:28Z</time>
      </trkpt>
      <trkpt lat="43.83153" lon="5.39667">
        <ele>492.2</ele>
        <time>2021-02-26T10:25:45Z</time>
      </trkpt>
      <trkpt lat="43.83153" lon="5.3968">
        <ele>491.41</ele>
        <time>2021-02-26T10:26:02Z</time>
      </trkpt>
      <trkpt lat="43.8315" lon="5.39693">
        <ele>491.5</ele>
        <time>2021-02-26T10:26:18Z</time>
      </trkpt>
      <trkpt lat="43.83143" lon="5.39705">
        <ele>490.77</ele>
        <time>2021-02-26T10:26:34Z</time>
      </trkpt>
      <trkpt lat="43.83136" lon="5.39716">
        <ele>491.3</ele>
        <time>2021-02-26T10:26:48Z</time>
      </trkpt>
      <trkpt lat="43.83134" lon="5.39721">
        <ele>491.42</ele>
        <time>2021-02-26T10:27:01Z</time>
      </trkpt>
      <trkpt lat="43.83127" lon="5.39722">
        <ele>491.93</ele>
        <time>2021-02-26T10:27:18Z</time>
      </trkpt>
      <trkpt lat="43.83126" lon="5.39725">
        <ele>491.45</ele>
        <time>2021-02-26T10:27:30Z</time>
      </trkpt>
      <trkpt lat="43.83117" lon="5.39737">
        <ele>493.32</ele>
        <time>2021-02-26T10:27:48Z</time>
      </trkpt>
      <trkpt lat="43.83116" lon="5.39739">
        <ele>493.4</ele>
        <time>2021-02-26T10:28:07Z</time>
      </trkpt>
      <trkpt lat="43.83109" lon="5.39752">
        <ele>493.53</ele>
        <time>2021-02-26T10:28:22Z</time>
      </trkpt>
      <trkpt lat="43.83101" lon="5.39753">
        <ele>495.54</ele>
        <time>2021-02-26T10:28:36Z</time>
      </trkpt>
      <trkpt lat="43.83092" lon="5.39755">
        <ele>497.63</ele>
        <time>2021-02-26T10:28:49Z</time>
      </trkpt>
      <trkpt lat="43.83087" lon="5.39759">
        <ele>497.92</ele>
        <time>2021-02-26T10:29:04Z</time>
      </trkpt>
      <trkpt lat="43.83078" lon="5.39765">
        <ele>498.23</ele>
        <time>2021-02-26T10:29:21Z</time>
      </trkpt>
      <trkpt lat="43.83072" lon="5.39778">
        <ele>497.27</ele>
        <time>2021-02-26T10:29:40Z</time>
      </trkpt>
      <trkpt lat="43.83072" lon="5.39788">
        <ele>495.78</ele>
        <time>2021-02-26T10:29:52Z</time>
      </trkpt>
      <trkpt lat="43.83073" lon="5.39794">
        <ele>494.77</ele>
        <time>2021-02-26T10:29:56Z</time>
      </trkpt>
      <trkpt lat="43.83073" lon="5.39805">
        <ele>493.07</ele>
        <time>2021-02-26T10:30:04Z</time>
      </trkpt>
      <trkpt lat="43.8307" lon="5.39826">
        <ele>489.72</ele>
        <time>2021-02-26T10:30:20Z</time>
      </trkpt>
      <trkpt lat="43.83076" lon="5.39838">
        <ele>488.14</ele>
        <time>2021-02-26T10:30:36Z</time>
      </trkpt>
      <trkpt lat="43.83074" lon="5.39844">
        <ele>488.38</ele>
        <time>2021-02-26T10:30:54Z</time>
      </trkpt>
      <trkpt lat="43.83073" lon="5.39846">
        <ele>489.82</ele>
        <time>2021-02-26T10:30:57Z</time>
      </trkpt>
      <trkpt lat="43.83069" lon="5.39859">
        <ele>492.83</ele>
        <time>2021-02-26T10:31:12Z</time>
      </trkpt>
      <trkpt lat="43.83074" lon="5.39862">
        <ele>492.85</ele>
        <time>2021-02-26T10:31:26Z</time>
      </trkpt>
      <trkpt lat="43.83093" lon="5.3985">
        <ele>491.63</ele>
        <time>2021-02-26T10:31:45Z</time>
      </trkpt>
      <trkpt lat="43.83103" lon="5.39844">
        <ele>490.24</ele>
        <time>2021-02-26T10:31:56Z</time>
      </trkpt>
      <trkpt lat="43.83119" lon="5.3983">
        <ele>489.05</ele>
        <time>2021-02-26T10:32:14Z</time>
      </trkpt>
      <trkpt lat="43.83126" lon="5.39822">
        <ele>488.12</ele>
        <time>2021-02-26T10:32:29Z</time>
      </trkpt>
      <trkpt lat="43.83129" lon="5.39819">
        <ele>488.06</ele>
        <time>2021-02-26T10:32:36Z</time>
      </trkpt>
      <trkpt lat="43.8315" lon="5.39807">
        <ele>487.54</ele>
        <time>2021-02-26T10:32:56Z</time>
      </trkpt>
      <trkpt lat="43.83165" lon="5.39801">
        <ele>485.82</ele>
        <time>2021-02-26T10:33:13Z</time>
      </trkpt>
      <trkpt lat="43.83185" lon="5.3981">
        <ele>484.13</ele>
        <time>2021-02-26T10:33:33Z</time>
      </trkpt>
      <trkpt lat="43.83194" lon="5.39824">
        <ele>482.7</ele>
        <time>2021-02-26T10:33:50Z</time>
      </trkpt>
      <trkpt lat="43.83203" lon="5.39834">
        <ele>480.83</ele>
        <time>2021-02-26T10:34:06Z</time>
      </trkpt>
      <trkpt lat="43.83214" lon="5.39845">
        <ele>478.43</ele>
        <time>2021-02-26T10:34:23Z</time>
      </trkpt>
      <trkpt lat="43.83222" lon="5.39863">
        <ele>477.92</ele>
        <time>2021-02-26T10:34:37Z</time>
      </trkpt>
      <trkpt lat="43.8323" lon="5.39884">
        <ele>476.2</ele>
        <time>2021-02-26T10:34:56Z</time>
      </trkpt>
      <trkpt lat="43.83237" lon="5.39899">
        <ele>473.96</ele>
        <time>2021-02-26T10:35:11Z</time>
      </trkpt>
      <trkpt lat="43.83248" lon="5.39916">
        <ele>471.69</ele>
        <time>2021-02-26T10:35:29Z</time>
      </trkpt>
      <trkpt lat="43.83254" lon="5.39916">
        <ele>469.6</ele>
        <time>2021-02-26T10:35:42Z</time>
      </trkpt>
      <trkpt lat="43.83253" lon="5.399">
        <ele>467.31</ele>
        <time>2021-02-26T10:35:59Z</time>
      </trkpt>
      <trkpt lat="43.83251" lon="5.39886">
        <ele>465.7</ele>
        <time>2021-02-26T10:36:14Z</time>
      </trkpt>
      <trkpt lat="43.83247" lon="5.39875">
        <ele>463.97</ele>
        <time>2021-02-26T10:36:27Z</time>
      </trkpt>
      <trkpt lat="43.83242" lon="5.39859">
        <ele>461.71</ele>
        <time>2021-02-26T10:36:43Z</time>
      </trkpt>
      <trkpt lat="43.83239" lon="5.39844">
        <ele>459.33</ele>
        <time>2021-02-26T10:37:00Z</time>
      </trkpt>
      <trkpt lat="43.83235" lon="5.39834">
        <ele>457.52</ele>
        <time>2021-02-26T10:37:18Z</time>
      </trkpt>
      <trkpt lat="43.8324" lon="5.39832">
        <ele>456.51</ele>
        <time>2021-02-26T10:37:35Z</time>
      </trkpt>
      <trkpt lat="43.83248" lon="5.39846">
        <ele>455.81</ele>
        <time>2021-02-26T10:37:50Z</time>
      </trkpt>
      <trkpt lat="43.83261" lon="5.39859">
        <ele>452.73</ele>
        <time>2021-02-26T10:38:10Z</time>
      </trkpt>
      <trkpt lat="43.83275" lon="5.39875">
        <ele>452.71</ele>
        <time>2021-02-26T10:38:31Z</time>
      </trkpt>
      <trkpt lat="43.83286" lon="5.39895">
        <ele>452.42</ele>
        <time>2021-02-26T10:38:49Z</time>
      </trkpt>
      <trkpt lat="43.8329" lon="5.39906">
        <ele>452.36</ele>
        <time>2021-02-26T10:38:56Z</time>
      </trkpt>
      <trkpt lat="43.83293" lon="5.39917">
        <ele>452.43</ele>
        <time>2021-02-26T10:39:13Z</time>
      </trkpt>
      <trkpt lat="43.83292" lon="5.39934">
        <ele>453.09</ele>
        <time>2021-02-26T10:39:32Z</time>
      </trkpt>
      <trkpt lat="43.83293" lon="5.39948">
        <ele>454.28</ele>
        <time>2021-02-26T10:39:49Z</time>
      </trkpt>
      <trkpt lat="43.83288" lon="5.39963">
        <ele>456.26</ele>
        <time>2021-02-26T10:40:12Z</time>
      </trkpt>
      <trkpt lat="43.8329" lon="5.39977">
        <ele>456.65</ele>
        <time>2021-02-26T10:40:28Z</time>
      </trkpt>
      <trkpt lat="43.83297" lon="5.39994">
        <ele>454.46</ele>
        <time>2021-02-26T10:40:47Z</time>
      </trkpt>
      <trkpt lat="43.83301" lon="5.40003">
        <ele>453.42</ele>
        <time>2021-02-26T10:40:53Z</time>
      </trkpt>
      <trkpt lat="43.83304" lon="5.40006">
        <ele>453.73</ele>
        <time>2021-02-26T10:40:56Z</time>
      </trkpt>
      <trkpt lat="43.83314" lon="5.40025">
        <ele>453.97</ele>
        <time>2021-02-26T10:41:11Z</time>
      </trkpt>
      <trkpt lat="43.83324" lon="5.40046">
        <ele>454.58</ele>
        <time>2021-02-26T10:41:29Z</time>
      </trkpt>
      <trkpt lat="43.8333" lon="5.40056">
        <ele>454.13</ele>
        <time>2021-02-26T10:41:45Z</time>
      </trkpt>
      <trkpt lat="43.83333" lon="5.40055">
        <ele>453.36</ele>
        <time>2021-02-26T10:41:59Z</time>
      </trkpt>
      <trkpt lat="43.8333" lon="5.4006">
        <ele>454.38</ele>
        <time>2021-02-26T10:42:08Z</time>
      </trkpt>
      <trkpt lat="43.83331" lon="5.40063">
        <ele>453.81</ele>
        <time>2021-02-26T10:42:11Z</time>
      </trkpt>
      <trkpt lat="43.83341" lon="5.40087">
        <ele>454.51</ele>
        <time>2021-02-26T10:42:31Z</time>
      </trkpt>
      <trkpt lat="43.83343" lon="5.40094">
        <ele>454.01</ele>
        <time>2021-02-26T10:42:36Z</time>
      </trkpt>
      <trkpt lat="43.83346" lon="5.40112">
        <ele>455.04</ele>
        <time>2021-02-26T10:42:50Z</time>
      </trkpt>
      <trkpt lat="43.83346" lon="5.40115">
        <ele>454.08</ele>
        <time>2021-02-26T10:42:57Z</time>
      </trkpt>
      <trkpt lat="43.83347" lon="5.40121">
        <ele>454.31</ele>
        <time>2021-02-26T10:43:15Z</time>
      </trkpt>
      <trkpt lat="43.83347" lon="5.40122">
        <ele>454.09</ele>
        <time>2021-02-26T10:43:16Z</time>
      </trkpt>
      <trkpt lat="43.83348" lon="5.40136">
        <ele>454.06</ele>
        <time>2021-02-26T10:43:31Z</time>
      </trkpt>
      <trkpt lat="43.83351" lon="5.40145">
        <ele>454.5</ele>
        <time>2021-02-26T10:43:44Z</time>
      </trkpt>
      <trkpt lat="43.83353" lon="5.40152">
        <ele>454.96</ele>
        <time>2021-02-26T10:43:54Z</time>
      </trkpt>
      <trkpt lat="43.83351" lon="5.4016">
        <ele>455.03</ele>
        <time>2021-02-26T10:44:00Z</time>
      </trkpt>
      <trkpt lat="43.83351" lon="5.40179">
        <ele>455.36</ele>
        <time>2021-02-26T10:44:15Z</time>
      </trkpt>
      <trkpt lat="43.8336" lon="5.40204">
        <ele>455.32</ele>
        <time>2021-02-26T10:44:34Z</time>
      </trkpt>
      <trkpt lat="43.83364" lon="5.40221">
        <ele>456.34</ele>
        <time>2021-02-26T10:44:51Z</time>
      </trkpt>
      <trkpt lat="43.83379" lon="5.40244">
        <ele>457.03</ele>
        <time>2021-02-26T10:45:12Z</time>
      </trkpt>
      <trkpt lat="43.83386" lon="5.4026">
        <ele>457.74</ele>
        <time>2021-02-26T10:45:26Z</time>
      </trkpt>
      <trkpt lat="43.83391" lon="5.40272">
        <ele>457.51</ele>
        <time>2021-02-26T10:45:36Z</time>
      </trkpt>
      <trkpt lat="43.83396" lon="5.40287">
        <ele>457.93</ele>
        <time>2021-02-26T10:45:55Z</time>
      </trkpt>
      <trkpt lat="43.83399" lon="5.40289">
        <ele>457.67</ele>
        <time>2021-02-26T10:45:59Z</time>
      </trkpt>
      <trkpt lat="43.83401" lon="5.40289">
        <ele>457.84</ele>
        <time>2021-02-26T10:46:02Z</time>
      </trkpt>
      <trkpt lat="43.83406" lon="5.40282">
        <ele>457.04</ele>
        <time>2021-02-26T10:46:22Z</time>
      </trkpt>
      <trkpt lat="43.83411" lon="5.4029">
        <ele>456.95</ele>
        <time>2021-02-26T10:46:41Z</time>
      </trkpt>
      <trkpt lat="43.83419" lon="5.40307">
        <ele>457.88</ele>
        <time>2021-02-26T10:46:55Z</time>
      </trkpt>
      <trkpt lat="43.83431" lon="5.40318">
        <ele>458.29</ele>
        <time>2021-02-26T10:47:17Z</time>
      </trkpt>
      <trkpt lat="43.8343" lon="5.40323">
        <ele>458.75</ele>
        <time>2021-02-26T10:47:22Z</time>
      </trkpt>
      <trkpt lat="43.83427" lon="5.40338">
        <ele>458.44</ele>
        <time>2021-02-26T10:47:38Z</time>
      </trkpt>
      <trkpt lat="43.83428" lon="5.40344">
        <ele>457.49</ele>
        <time>2021-02-26T10:47:53Z</time>
      </trkpt>
      <trkpt lat="43.83427" lon="5.40346">
        <ele>457.27</ele>
        <time>2021-02-26T10:48:34Z</time>
      </trkpt>
      <trkpt lat="43.83426" lon="5.40348">
        <ele>457.6</ele>
        <time>2021-02-26T10:49:42Z</time>
      </trkpt>
      <trkpt lat="43.83429" lon="5.40344">
        <ele>456.92</ele>
        <time>2021-02-26T10:50:13Z</time>
      </trkpt>
      <trkpt lat="43.83429" lon="5.40344">
        <ele>456.8</ele>
        <time>2021-02-26T10:50:45Z</time>
      </trkpt>
      <trkpt lat="43.8343" lon="5.40343">
        <ele>456.61</ele>
        <time>2021-02-26T10:50:51Z</time>
      </trkpt>
      <trkpt lat="43.83426" lon="5.40345">
        <ele>458.05</ele>
        <time>2021-02-26T10:51:16Z</time>
      </trkpt>
      <trkpt lat="43.83433" lon="5.4035">
        <ele>458.54</ele>
        <time>2021-02-26T10:51:35Z</time>
      </trkpt>
      <trkpt lat="43.83445" lon="5.40355">
        <ele>458.86</ele>
        <time>2021-02-26T10:51:52Z</time>
      </trkpt>
      <trkpt lat="43.83452" lon="5.40364">
        <ele>458.55</ele>
        <time>2021-02-26T10:52:07Z</time>
      </trkpt>
      <trkpt lat="43.83458" lon="5.4038">
        <ele>459.09</ele>
        <time>2021-02-26T10:52:25Z</time>
      </trkpt>
      <trkpt lat="43.83459" lon="5.40391">
        <ele>459.03</ele>
        <time>2021-02-26T10:52:39Z</time>
      </trkpt>
      <trkpt lat="43.83465" lon="5.40401">
        <ele>458.59</ele>
        <time>2021-02-26T10:52:57Z</time>
      </trkpt>
      <trkpt lat="43.83484" lon="5.40407">
        <ele>459.54</ele>
        <time>2021-02-26T10:53:20Z</time>
      </trkpt>
      <trkpt lat="43.83496" lon="5.40415">
        <ele>459.4</ele>
        <time>2021-02-26T10:53:36Z</time>
      </trkpt>
      <trkpt lat="43.83507" lon="5.40423">
        <ele>460.05</ele>
        <time>2021-02-26T10:53:52Z</time>
      </trkpt>
      <trkpt lat="43.83517" lon="5.40435">
        <ele>460.54</ele>
        <time>2021-02-26T10:54:10Z</time>
      </trkpt>
      <trkpt lat="43.83527" lon="5.40441">
        <ele>460.57</ele>
        <time>2021-02-26T10:54:24Z</time>
      </trkpt>
      <trkpt lat="43.83532" lon="5.40452">
        <ele>460.38</ele>
        <time>2021-02-26T10:54:39Z</time>
      </trkpt>
      <trkpt lat="43.83541" lon="5.40464">
        <ele>461.27</ele>
        <time>2021-02-26T10:54:57Z</time>
      </trkpt>
      <trkpt lat="43.83546" lon="5.40462">
        <ele>460.64</ele>
        <time>2021-02-26T10:55:09Z</time>
      </trkpt>
      <trkpt lat="43.83552" lon="5.40462">
        <ele>460.36</ele>
        <time>2021-02-26T10:55:25Z</time>
      </trkpt>
      <trkpt lat="43.83556" lon="5.40452">
        <ele>461.43</ele>
        <time>2021-02-26T10:55:43Z</time>
      </trkpt>
      <trkpt lat="43.83559" lon="5.40457">
        <ele>461.81</ele>
        <time>2021-02-26T10:56:05Z</time>
      </trkpt>
      <trkpt lat="43.83573" lon="5.40468">
        <ele>465.01</ele>
        <time>2021-02-26T10:56:27Z</time>
      </trkpt>
      <trkpt lat="43.83585" lon="5.40475">
        <ele>466.26</ele>
        <time>2021-02-26T10:56:45Z</time>
      </trkpt>
      <trkpt lat="43.83597" lon="5.40485">
        <ele>466.33</ele>
        <time>2021-02-26T10:57:00Z</time>
      </trkpt>
      <trkpt lat="43.83609" lon="5.405">
        <ele>466.64</ele>
        <time>2021-02-26T10:57:17Z</time>
      </trkpt>
      <trkpt lat="43.83612" lon="5.40505">
        <ele>467.05</ele>
        <time>2021-02-26T10:57:21Z</time>
      </trkpt>
      <trkpt lat="43.83624" lon="5.40522">
        <ele>467.01</ele>
        <time>2021-02-26T10:57:38Z</time>
      </trkpt>
      <trkpt lat="43.83636" lon="5.40534">
        <ele>467.33</ele>
        <time>2021-02-26T10:57:53Z</time>
      </trkpt>
      <trkpt lat="43.83646" lon="5.40547">
        <ele>467.42</ele>
        <time>2021-02-26T10:58:09Z</time>
      </trkpt>
      <trkpt lat="43.83656" lon="5.40556">
        <ele>469.11</ele>
        <time>2021-02-26T10:58:29Z</time>
      </trkpt>
      <trkpt lat="43.83672" lon="5.40568">
        <ele>470.56</ele>
        <time>2021-02-26T10:58:53Z</time>
      </trkpt>
      <trkpt lat="43.83678" lon="5.40571">
        <ele>471.82</ele>
        <time>2021-02-26T10:59:09Z</time>
      </trkpt>
      <trkpt lat="43.83686" lon="5.40575">
        <ele>473.69</ele>
        <time>2021-02-26T10:59:27Z</time>
      </trkpt>
      <trkpt lat="43.83689" lon="5.40589">
        <ele>475.36</ele>
        <time>2021-02-26T10:59:46Z</time>
      </trkpt>
      <trkpt lat="43.83688" lon="5.40604">
        <ele>477.21</ele>
        <time>2021-02-26T11:00:04Z</time>
      </trkpt>
      <trkpt lat="43.83687" lon="5.40618">
        <ele>477.93</ele>
        <time>2021-02-26T11:00:23Z</time>
      </trkpt>
      <trkpt lat="43.83688" lon="5.40624">
        <ele>478.41</ele>
        <time>2021-02-26T11:00:37Z</time>
      </trkpt>
      <trkpt lat="43.83687" lon="5.40624">
        <ele>477.65</ele>
        <time>2021-02-26T11:01:04Z</time>
      </trkpt>
      <trkpt lat="43.83688" lon="5.40624">
        <ele>477.37</ele>
        <time>2021-02-26T11:01:54Z</time>
      </trkpt>
      <trkpt lat="43.83688" lon="5.40624">
        <ele>478.29</ele>
        <time>2021-02-26T11:02:27Z</time>
      </trkpt>
      <trkpt lat="43.8369" lon="5.40622">
        <ele>478.34</ele>
        <time>2021-02-26T11:03:00Z</time>
      </trkpt>
      <trkpt lat="43.83689" lon="5.40628">
        <ele>478.33</ele>
        <time>2021-02-26T11:03:35Z</time>
      </trkpt>
      <trkpt lat="43.83689" lon="5.4063">
        <ele>480.09</ele>
        <time>2021-02-26T11:04:09Z</time>
      </trkpt>
      <trkpt lat="43.83691" lon="5.40632">
        <ele>478.62</ele>
        <time>2021-02-26T11:04:39Z</time>
      </trkpt>
      <trkpt lat="43.83689" lon="5.40631">
        <ele>478.89</ele>
        <time>2021-02-26T11:05:09Z</time>
      </trkpt>
      <trkpt lat="43.83693" lon="5.40624">
        <ele>478.74</ele>
        <time>2021-02-26T11:05:43Z</time>
      </trkpt>
      <trkpt lat="43.8369" lon="5.40623">
        <ele>480.29</ele>
        <time>2021-02-26T11:06:09Z</time>
      </trkpt>
      <trkpt lat="43.83688" lon="5.40622">
        <ele>480.04</ele>
        <time>2021-02-26T11:06:25Z</time>
      </trkpt>
      <trkpt lat="43.83687" lon="5.40626">
        <ele>480.23</ele>
        <time>2021-02-26T11:06:48Z</time>
      </trkpt>
      <trkpt lat="43.83687" lon="5.4063">
        <ele>480.18</ele>
        <time>2021-02-26T11:07:06Z</time>
      </trkpt>
      <trkpt lat="43.83686" lon="5.40626">
        <ele>479.78</ele>
        <time>2021-02-26T11:07:09Z</time>
      </trkpt>
      <trkpt lat="43.83694" lon="5.4061">
        <ele>480.31</ele>
        <time>2021-02-26T11:07:25Z</time>
      </trkpt>
      <trkpt lat="43.83702" lon="5.40595">
        <ele>482.37</ele>
        <time>2021-02-26T11:07:45Z</time>
      </trkpt>
      <trkpt lat="43.83708" lon="5.40592">
        <ele>485.61</ele>
        <time>2021-02-26T11:07:59Z</time>
      </trkpt>
      <trkpt lat="43.83712" lon="5.40585">
        <ele>486.93</ele>
        <time>2021-02-26T11:08:16Z</time>
      </trkpt>
      <trkpt lat="43.83718" lon="5.40582">
        <ele>489.5</ele>
        <time>2021-02-26T11:08:49Z</time>
      </trkpt>
      <trkpt lat="43.83727" lon="5.40581">
        <ele>492.65</ele>
        <time>2021-02-26T11:09:07Z</time>
      </trkpt>
      <trkpt lat="43.83727" lon="5.40581">
        <ele>492.64</ele>
        <time>2021-02-26T11:09:08Z</time>
      </trkpt>
      <trkpt lat="43.8373" lon="5.40579">
        <ele>493.53</ele>
        <time>2021-02-26T11:09:25Z</time>
      </trkpt>
      <trkpt lat="43.83734" lon="5.40563">
        <ele>493.58</ele>
        <time>2021-02-26T11:09:43Z</time>
      </trkpt>
      <trkpt lat="43.83731" lon="5.40544">
        <ele>494.9</ele>
        <time>2021-02-26T11:10:02Z</time>
      </trkpt>
      <trkpt lat="43.83719" lon="5.40532">
        <ele>494.11</ele>
        <time>2021-02-26T11:10:21Z</time>
      </trkpt>
      <trkpt lat="43.83717" lon="5.40531">
        <ele>494.43</ele>
        <time>2021-02-26T11:10:26Z</time>
      </trkpt>
      <trkpt lat="43.83698" lon="5.40516">
        <ele>495.11</ele>
        <time>2021-02-26T11:10:49Z</time>
      </trkpt>
      <trkpt lat="43.83689" lon="5.40509">
        <ele>495.93</ele>
        <time>2021-02-26T11:11:06Z</time>
      </trkpt>
      <trkpt lat="43.83678" lon="5.40497">
        <ele>496.58</ele>
        <time>2021-02-26T11:11:23Z</time>
      </trkpt>
      <trkpt lat="43.83666" lon="5.40481">
        <ele>496.04</ele>
        <time>2021-02-26T11:11:40Z</time>
      </trkpt>
      <trkpt lat="43.83655" lon="5.40463">
        <ele>496.27</ele>
        <time>2021-02-26T11:12:00Z</time>
      </trkpt>
      <trkpt lat="43.83651" lon="5.40445">
        <ele>498.83</ele>
        <time>2021-02-26T11:12:18Z</time>
      </trkpt>
      <trkpt lat="43.83651" lon="5.40428">
        <ele>501.97</ele>
        <time>2021-02-26T11:12:39Z</time>
      </trkpt>
      <trkpt lat="43.83644" lon="5.40406">
        <ele>502.82</ele>
        <time>2021-02-26T11:13:00Z</time>
      </trkpt>
      <trkpt lat="43.83642" lon="5.40404">
        <ele>503.67</ele>
        <time>2021-02-26T11:13:19Z</time>
      </trkpt>
      <trkpt lat="43.83637" lon="5.40397">
        <ele>503.17</ele>
        <time>2021-02-26T11:13:41Z</time>
      </trkpt>
      <trkpt lat="43.83636" lon="5.40397">
        <ele>502.8</ele>
        <time>2021-02-26T11:13:42Z</time>
      </trkpt>
      <trkpt lat="43.83634" lon="5.40394">
        <ele>502.94</ele>
        <time>2021-02-26T11:13:45Z</time>
      </trkpt>
      <trkpt lat="43.83619" lon="5.40383">
        <ele>499.76</ele>
        <time>2021-02-26T11:14:04Z</time>
      </trkpt>
      <trkpt lat="43.83606" lon="5.4037">
        <ele>498.89</ele>
        <time>2021-02-26T11:14:21Z</time>
      </trkpt>
      <trkpt lat="43.83603" lon="5.40365">
        <ele>499.25</ele>
        <time>2021-02-26T11:14:26Z</time>
      </trkpt>
      <trkpt lat="43.83594" lon="5.4036">
        <ele>499.22</ele>
        <time>2021-02-26T11:14:45Z</time>
      </trkpt>
      <trkpt lat="43.83593" lon="5.40359">
        <ele>499.56</ele>
        <time>2021-02-26T11:14:47Z</time>
      </trkpt>
      <trkpt lat="43.83589" lon="5.40356">
        <ele>498.54</ele>
        <time>2021-02-26T11:14:51Z</time>
      </trkpt>
      <trkpt lat="43.83581" lon="5.40347">
        <ele>499.37</ele>
        <time>2021-02-26T11:15:11Z</time>
      </trkpt>
      <trkpt lat="43.83572" lon="5.40339">
        <ele>500.14</ele>
        <time>2021-02-26T11:15:31Z</time>
      </trkpt>
      <trkpt lat="43.83564" lon="5.40333">
        <ele>500.48</ele>
        <time>2021-02-26T11:15:42Z</time>
      </trkpt>
      <trkpt lat="43.83556" lon="5.40318">
        <ele>502.46</ele>
        <time>2021-02-26T11:16:01Z</time>
      </trkpt>
      <trkpt lat="43.83545" lon="5.40306">
        <ele>504.14</ele>
        <time>2021-02-26T11:16:17Z</time>
      </trkpt>
      <trkpt lat="43.83542" lon="5.40305">
        <ele>503.97</ele>
        <time>2021-02-26T11:16:20Z</time>
      </trkpt>
      <trkpt lat="43.83523" lon="5.4029">
        <ele>505.47</ele>
        <time>2021-02-26T11:16:42Z</time>
      </trkpt>
      <trkpt lat="43.83516" lon="5.40285">
        <ele>504.91</ele>
        <time>2021-02-26T11:17:00Z</time>
      </trkpt>
      <trkpt lat="43.83511" lon="5.40278">
        <ele>505.87</ele>
        <time>2021-02-26T11:17:33Z</time>
      </trkpt>
      <trkpt lat="43.83508" lon="5.40274">
        <ele>505.57</ele>
        <time>2021-02-26T11:17:38Z</time>
      </trkpt>
      <trkpt lat="43.835" lon="5.40257">
        <ele>507.11</ele>
        <time>2021-02-26T11:17:58Z</time>
      </trkpt>
      <trkpt lat="43.83493" lon="5.40248">
        <ele>506.2</ele>
        <time>2021-02-26T11:18:14Z</time>
      </trkpt>
      <trkpt lat="43.8349" lon="5.40248">
        <ele>506.23</ele>
        <time>2021-02-26T11:18:34Z</time>
      </trkpt>
      <trkpt lat="43.83487" lon="5.40246">
        <ele>506.46</ele>
        <time>2021-02-26T11:18:45Z</time>
      </trkpt>
      <trkpt lat="43.83486" lon="5.40245">
        <ele>506.77</ele>
        <time>2021-02-26T11:18:47Z</time>
      </trkpt>
      <trkpt lat="43.8347" lon="5.40215">
        <ele>506.19</ele>
        <time>2021-02-26T11:19:13Z</time>
      </trkpt>
      <trkpt lat="43.83468" lon="5.40201">
        <ele>505.86</ele>
        <time>2021-02-26T11:19:23Z</time>
      </trkpt>
      <trkpt lat="43.83464" lon="5.40191">
        <ele>505.67</ele>
        <time>2021-02-26T11:19:43Z</time>
      </trkpt>
      <trkpt lat="43.83463" lon="5.40188">
        <ele>505.89</ele>
        <time>2021-02-26T11:19:54Z</time>
      </trkpt>
      <trkpt lat="43.83462" lon="5.40182">
        <ele>504.89</ele>
        <time>2021-02-26T11:19:58Z</time>
      </trkpt>
      <trkpt lat="43.83457" lon="5.40157">
        <ele>505.26</ele>
        <time>2021-02-26T11:20:17Z</time>
      </trkpt>
      <trkpt lat="43.83456" lon="5.40154">
        <ele>505.56</ele>
        <time>2021-02-26T11:20:21Z</time>
      </trkpt>
      <trkpt lat="43.83454" lon="5.40152">
        <ele>504.88</ele>
        <time>2021-02-26T11:20:24Z</time>
      </trkpt>
      <trkpt lat="43.83437" lon="5.40129">
        <ele>504.93</ele>
        <time>2021-02-26T11:20:47Z</time>
      </trkpt>
      <trkpt lat="43.83433" lon="5.40122">
        <ele>505.36</ele>
        <time>2021-02-26T11:20:55Z</time>
      </trkpt>
      <trkpt lat="43.83415" lon="5.40103">
        <ele>504.38</ele>
        <time>2021-02-26T11:21:17Z</time>
      </trkpt>
      <trkpt lat="43.83407" lon="5.40072">
        <ele>504.05</ele>
        <time>2021-02-26T11:21:39Z</time>
      </trkpt>
      <trkpt lat="43.83408" lon="5.40042">
        <ele>503.64</ele>
        <time>2021-02-26T11:22:00Z</time>
      </trkpt>
      <trkpt lat="43.83407" lon="5.40012">
        <ele>501.84</ele>
        <time>2021-02-26T11:22:20Z</time>
      </trkpt>
      <trkpt lat="43.83402" lon="5.39983">
        <ele>502.29</ele>
        <time>2021-02-26T11:22:40Z</time>
      </trkpt>
      <trkpt lat="43.83401" lon="5.39976">
        <ele>502.76</ele>
        <time>2021-02-26T11:22:47Z</time>
      </trkpt>
      <trkpt lat="43.83392" lon="5.39949">
        <ele>503.06</ele>
        <time>2021-02-26T11:23:10Z</time>
      </trkpt>
      <trkpt lat="43.83388" lon="5.39944">
        <ele>503.18</ele>
        <time>2021-02-26T11:23:15Z</time>
      </trkpt>
      <trkpt lat="43.83369" lon="5.39926">
        <ele>501.4</ele>
        <time>2021-02-26T11:23:38Z</time>
      </trkpt>
      <trkpt lat="43.83362" lon="5.39916">
        <ele>500.33</ele>
        <time>2021-02-26T11:23:53Z</time>
      </trkpt>
      <trkpt lat="43.83362" lon="5.39906">
        <ele>499.14</ele>
        <time>2021-02-26T11:24:11Z</time>
      </trkpt>
      <trkpt lat="43.8336" lon="5.3991">
        <ele>499.88</ele>
        <time>2021-02-26T11:24:48Z</time>
      </trkpt>
      <trkpt lat="43.83365" lon="5.39923">
        <ele>501.98</ele>
        <time>2021-02-26T11:25:05Z</time>
      </trkpt>
      <trkpt lat="43.83364" lon="5.39924">
        <ele>501.54</ele>
        <time>2021-02-26T11:25:18Z</time>
      </trkpt>
      <trkpt lat="43.83362" lon="5.39911">
        <ele>500.12</ele>
        <time>2021-02-26T11:25:34Z</time>
      </trkpt>
      <trkpt lat="43.83366" lon="5.39883">
        <ele>498.06</ele>
        <time>2021-02-26T11:25:53Z</time>
      </trkpt>
      <trkpt lat="43.83377" lon="5.39866">
        <ele>498.17</ele>
        <time>2021-02-26T11:26:09Z</time>
      </trkpt>
      <trkpt lat="43.83379" lon="5.3986">
        <ele>498.9</ele>
        <time>2021-02-26T11:26:14Z</time>
      </trkpt>
      <trkpt lat="43.83382" lon="5.39854">
        <ele>498.19</ele>
        <time>2021-02-26T11:26:19Z</time>
      </trkpt>
      <trkpt lat="43.83383" lon="5.39848">
        <ele>497.67</ele>
        <time>2021-02-26T11:26:37Z</time>
      </trkpt>
      <trkpt lat="43.83387" lon="5.39832">
        <ele>497.43</ele>
        <time>2021-02-26T11:26:54Z</time>
      </trkpt>
      <trkpt lat="43.83384" lon="5.39808">
        <ele>496.44</ele>
        <time>2021-02-26T11:27:10Z</time>
      </trkpt>
      <trkpt lat="43.83371" lon="5.39796">
        <ele>496.59</ele>
        <time>2021-02-26T11:27:25Z</time>
      </trkpt>
      <trkpt lat="43.83361" lon="5.39779">
        <ele>498.16</ele>
        <time>2021-02-26T11:27:40Z</time>
      </trkpt>
      <trkpt lat="43.83358" lon="5.39774">
        <ele>497.87</ele>
        <time>2021-02-26T11:27:45Z</time>
      </trkpt>
      <trkpt lat="43.83344" lon="5.39762">
        <ele>499.49</ele>
        <time>2021-02-26T11:28:03Z</time>
      </trkpt>
      <trkpt lat="43.83337" lon="5.39754">
        <ele>499.22</ele>
        <time>2021-02-26T11:28:15Z</time>
      </trkpt>
      <trkpt lat="43.83327" lon="5.39741">
        <ele>498.07</ele>
        <time>2021-02-26T11:28:33Z</time>
      </trkpt>
      <trkpt lat="43.83324" lon="5.39735">
        <ele>497.24</ele>
        <time>2021-02-26T11:28:46Z</time>
      </trkpt>
      <trkpt lat="43.83321" lon="5.39727">
        <ele>496.97</ele>
        <time>2021-02-26T11:28:56Z</time>
      </trkpt>
      <trkpt lat="43.83315" lon="5.39703">
        <ele>495.88</ele>
        <time>2021-02-26T11:29:15Z</time>
      </trkpt>
      <trkpt lat="43.83311" lon="5.39698">
        <ele>494.86</ele>
        <time>2021-02-26T11:29:28Z</time>
      </trkpt>
      <trkpt lat="43.83309" lon="5.39704">
        <ele>493.2</ele>
        <time>2021-02-26T11:29:40Z</time>
      </trkpt>
      <trkpt lat="43.83306" lon="5.39691">
        <ele>491.4</ele>
        <time>2021-02-26T11:29:56Z</time>
      </trkpt>
      <trkpt lat="43.833" lon="5.39687">
        <ele>490.64</ele>
        <time>2021-02-26T11:30:09Z</time>
      </trkpt>
      <trkpt lat="43.83297" lon="5.39678">
        <ele>488.46</ele>
        <time>2021-02-26T11:30:23Z</time>
      </trkpt>
      <trkpt lat="43.83291" lon="5.39676">
        <ele>486.36</ele>
        <time>2021-02-26T11:30:38Z</time>
      </trkpt>
      <trkpt lat="43.83285" lon="5.39674">
        <ele>484.79</ele>
        <time>2021-02-26T11:30:52Z</time>
      </trkpt>
      <trkpt lat="43.83283" lon="5.39662">
        <ele>483.92</ele>
        <time>2021-02-26T11:31:04Z</time>
      </trkpt>
      <trkpt lat="43.83288" lon="5.39646">
        <ele>484.58</ele>
        <time>2021-02-26T11:31:21Z</time>
      </trkpt>
      <trkpt lat="43.83289" lon="5.39648">
        <ele>484.09</ele>
        <time>2021-02-26T11:31:42Z</time>
      </trkpt>
      <trkpt lat="43.83289" lon="5.39648">
        <ele>479.84</ele>
        <time>2021-02-26T11:31:59Z</time>
      </trkpt>
      <trkpt lat="43.83289" lon="5.39648">
        <ele>484.77</ele>
        <time>2021-02-26T11:32:00Z</time>
      </trkpt>
      <trkpt lat="43.83291" lon="5.39648">
        <ele>483.71</ele>
        <time>2021-02-26T11:32:41Z</time>
      </trkpt>
      <trkpt lat="43.83288" lon="5.39648">
        <ele>484.47</ele>
        <time>2021-02-26T11:33:09Z</time>
      </trkpt>
      <trkpt lat="43.83287" lon="5.39648">
        <ele>484.67</ele>
        <time>2021-02-26T11:33:36Z</time>
      </trkpt>
      <trkpt lat="43.83287" lon="5.39649">
        <ele>485.45</ele>
        <time>2021-02-26T11:34:04Z</time>
      </trkpt>
      <trkpt lat="43.83287" lon="5.39648">
        <ele>485.27</ele>
        <time>2021-02-26T11:34:33Z</time>
      </trkpt>
      <trkpt lat="43.83289" lon="5.39647">
        <ele>485.17</ele>
        <time>2021-02-26T11:34:53Z</time>
      </trkpt>
      <trkpt lat="43.83289" lon="5.39645">
        <ele>484.67</ele>
        <time>2021-02-26T11:35:18Z</time>
      </trkpt>
      <trkpt lat="43.83291" lon="5.39646">
        <ele>484.76</ele>
        <time>2021-02-26T11:36:08Z</time>
      </trkpt>
      <trkpt lat="43.8329" lon="5.39645">
        <ele>485.54</ele>
        <time>2021-02-26T11:36:59Z</time>
      </trkpt>
      <trkpt lat="43.83289" lon="5.39646">
        <ele>485.61</ele>
        <time>2021-02-26T11:38:00Z</time>
      </trkpt>
      <trkpt lat="43.83289" lon="5.39646">
        <ele>485.93</ele>
        <time>2021-02-26T11:39:01Z</time>
      </trkpt>
      <trkpt lat="43.83287" lon="5.39648">
        <ele>486.56</ele>
        <time>2021-02-26T11:39:44Z</time>
      </trkpt>
      <trkpt lat="43.83287" lon="5.39646">
        <ele>486.36</ele>
        <time>2021-02-26T11:40:36Z</time>
      </trkpt>
      <trkpt lat="43.83289" lon="5.39646">
        <ele>487.6</ele>
        <time>2021-02-26T11:41:42Z</time>
      </trkpt>
      <trkpt lat="43.83288" lon="5.39648">
        <ele>487.23</ele>
        <time>2021-02-26T11:42:17Z</time>
      </trkpt>
      <trkpt lat="43.83291" lon="5.39645">
        <ele>487.6</ele>
        <time>2021-02-26T11:42:46Z</time>
      </trkpt>
      <trkpt lat="43.8329" lon="5.39648">
        <ele>487.74</ele>
        <time>2021-02-26T11:43:20Z</time>
      </trkpt>
      <trkpt lat="43.83286" lon="5.39651">
        <ele>487.79</ele>
        <time>2021-02-26T11:43:49Z</time>
      </trkpt>
      <trkpt lat="43.83291" lon="5.39648">
        <ele>487.81</ele>
        <time>2021-02-26T11:44:18Z</time>
      </trkpt>
      <trkpt lat="43.83291" lon="5.39646">
        <ele>488.15</ele>
        <time>2021-02-26T11:45:03Z</time>
      </trkpt>
      <trkpt lat="43.83291" lon="5.39645">
        <ele>488</ele>
        <time>2021-02-26T11:45:49Z</time>
      </trkpt>
      <trkpt lat="43.8329" lon="5.39645">
        <ele>488.48</ele>
        <time>2021-02-26T11:46:24Z</time>
      </trkpt>
      <trkpt lat="43.8329" lon="5.39645">
        <ele>488.58</ele>
        <time>2021-02-26T11:47:02Z</time>
      </trkpt>
      <trkpt lat="43.83292" lon="5.39646">
        <ele>488.81</ele>
        <time>2021-02-26T11:48:02Z</time>
      </trkpt>
      <trkpt lat="43.83293" lon="5.39647">
        <ele>488.67</ele>
        <time>2021-02-26T11:48:57Z</time>
      </trkpt>
      <trkpt lat="43.83291" lon="5.39648">
        <ele>489.23</ele>
        <time>2021-02-26T11:49:54Z</time>
      </trkpt>
      <trkpt lat="43.8329" lon="5.39647">
        <ele>489.83</ele>
        <time>2021-02-26T11:50:50Z</time>
      </trkpt>
      <trkpt lat="43.8329" lon="5.39647">
        <ele>489.68</ele>
        <time>2021-02-26T11:51:53Z</time>
      </trkpt>
      <trkpt lat="43.83289" lon="5.39647">
        <ele>490.48</ele>
        <time>2021-02-26T11:52:55Z</time>
      </trkpt>
      <trkpt lat="43.83288" lon="5.39647">
        <ele>490.3</ele>
        <time>2021-02-26T11:53:52Z</time>
      </trkpt>
      <trkpt lat="43.83288" lon="5.39647">
        <ele>490.58</ele>
        <time>2021-02-26T11:54:58Z</time>
      </trkpt>
      <trkpt lat="43.83288" lon="5.39649">
        <ele>491.18</ele>
        <time>2021-02-26T11:55:53Z</time>
      </trkpt>
      <trkpt lat="43.83288" lon="5.3965">
        <ele>490.63</ele>
        <time>2021-02-26T11:56:51Z</time>
      </trkpt>
      <trkpt lat="43.8329" lon="5.39649">
        <ele>490.68</ele>
        <time>2021-02-26T11:57:48Z</time>
      </trkpt>
      <trkpt lat="43.8329" lon="5.39653">
        <ele>490.55</ele>
        <time>2021-02-26T11:58:19Z</time>
      </trkpt>
      <trkpt lat="43.83289" lon="5.39651">
        <ele>490.89</ele>
        <time>2021-02-26T11:58:46Z</time>
      </trkpt>
      <trkpt lat="43.83289" lon="5.3965">
        <ele>491.04</ele>
        <time>2021-02-26T11:59:23Z</time>
      </trkpt>
      <trkpt lat="43.83289" lon="5.3965">
        <ele>490.85</ele>
        <time>2021-02-26T11:59:49Z</time>
      </trkpt>
      <trkpt lat="43.83286" lon="5.3965">
        <ele>492.56</ele>
        <time>2021-02-26T12:00:12Z</time>
      </trkpt>
      <trkpt lat="43.83288" lon="5.39644">
        <ele>491.02</ele>
        <time>2021-02-26T12:00:30Z</time>
      </trkpt>
      <trkpt lat="43.8329" lon="5.39642">
        <ele>490.39</ele>
        <time>2021-02-26T12:00:34Z</time>
      </trkpt>
      <trkpt lat="43.83294" lon="5.39641">
        <ele>489.69</ele>
        <time>2021-02-26T12:00:56Z</time>
      </trkpt>
      <trkpt lat="43.83306" lon="5.39615">
        <ele>489.92</ele>
        <time>2021-02-26T12:02:02Z</time>
      </trkpt>
      <trkpt lat="43.83313" lon="5.39608">
        <ele>490.41</ele>
        <time>2021-02-26T12:02:20Z</time>
      </trkpt>
      <trkpt lat="43.83367" lon="5.39601">
        <ele>489.89</ele>
        <time>2021-02-26T12:02:44Z</time>
      </trkpt>
      <trkpt lat="43.83374" lon="5.39608">
        <ele>490.31</ele>
        <time>2021-02-26T12:02:48Z</time>
      </trkpt>
      <trkpt lat="43.83338" lon="5.3957">
        <ele>490.1</ele>
        <time>2021-02-26T12:03:01Z</time>
      </trkpt>
      <trkpt lat="43.83296" lon="5.39615">
        <ele>489.85</ele>
        <time>2021-02-26T12:03:09Z</time>
      </trkpt>
      <trkpt lat="43.8329" lon="5.39617">
        <ele>489.82</ele>
        <time>2021-02-26T12:03:16Z</time>
      </trkpt>
      <trkpt lat="43.83301" lon="5.39626">
        <ele>490.2</ele>
        <time>2021-02-26T12:04:03Z</time>
      </trkpt>
      <trkpt lat="43.83292" lon="5.39622">
        <ele>489.9</ele>
        <time>2021-02-26T12:04:29Z</time>
      </trkpt>
      <trkpt lat="43.83294" lon="5.39627">
        <ele>490.02</ele>
        <time>2021-02-26T12:05:53Z</time>
      </trkpt>
      <trkpt lat="43.83293" lon="5.39633">
        <ele>490.15</ele>
        <time>2021-02-26T12:07:15Z</time>
      </trkpt>
      <trkpt lat="43.83295" lon="5.3963">
        <ele>489.83</ele>
        <time>2021-02-26T12:09:55Z</time>
      </trkpt>
      <trkpt lat="43.83293" lon="5.39627">
        <ele>489.93</ele>
        <time>2021-02-26T12:10:03Z</time>
      </trkpt>
      <trkpt lat="43.83291" lon="5.39634">
        <ele>489.17</ele>
        <time>2021-02-26T12:10:41Z</time>
      </trkpt>
      <trkpt lat="43.83281" lon="5.39639">
        <ele>490.58</ele>
        <time>2021-02-26T12:11:00Z</time>
      </trkpt>
      <trkpt lat="43.83281" lon="5.39628">
        <ele>489.26</ele>
        <time>2021-02-26T12:11:19Z</time>
      </trkpt>
      <trkpt lat="43.83283" lon="5.39638">
        <ele>490.64</ele>
        <time>2021-02-26T12:11:34Z</time>
      </trkpt>
      <trkpt lat="43.83284" lon="5.39653">
        <ele>491.51</ele>
        <time>2021-02-26T12:11:54Z</time>
      </trkpt>
      <trkpt lat="43.83283" lon="5.39656">
        <ele>492.41</ele>
        <time>2021-02-26T12:11:57Z</time>
      </trkpt>
      <trkpt lat="43.83281" lon="5.39673">
        <ele>491.59</ele>
        <time>2021-02-26T12:12:15Z</time>
      </trkpt>
      <trkpt lat="43.83275" lon="5.39676">
        <ele>489.64</ele>
        <time>2021-02-26T12:12:29Z</time>
      </trkpt>
      <trkpt lat="43.83274" lon="5.3968">
        <ele>489.46</ele>
        <time>2021-02-26T12:12:35Z</time>
      </trkpt>
      <trkpt lat="43.8327" lon="5.39687">
        <ele>488.69</ele>
        <time>2021-02-26T12:12:52Z</time>
      </trkpt>
      <trkpt lat="43.8327" lon="5.39694">
        <ele>489.24</ele>
        <time>2021-02-26T12:13:20Z</time>
      </trkpt>
      <trkpt lat="43.83272" lon="5.39705">
        <ele>489.39</ele>
        <time>2021-02-26T12:13:32Z</time>
      </trkpt>
      <trkpt lat="43.83274" lon="5.39726">
        <ele>488.06</ele>
        <time>2021-02-26T12:13:49Z</time>
      </trkpt>
      <trkpt lat="43.83277" lon="5.39733">
        <ele>488.28</ele>
        <time>2021-02-26T12:14:03Z</time>
      </trkpt>
      <trkpt lat="43.83276" lon="5.39733">
        <ele>487.8</ele>
        <time>2021-02-26T12:14:06Z</time>
      </trkpt>
      <trkpt lat="43.83275" lon="5.3973">
        <ele>488.17</ele>
        <time>2021-02-26T12:14:09Z</time>
      </trkpt>
      <trkpt lat="43.83272" lon="5.39708">
        <ele>488.61</ele>
        <time>2021-02-26T12:14:28Z</time>
      </trkpt>
      <trkpt lat="43.83271" lon="5.39698">
        <ele>488.51</ele>
        <time>2021-02-26T12:14:36Z</time>
      </trkpt>
      <trkpt lat="43.8328" lon="5.39681">
        <ele>489.6</ele>
        <time>2021-02-26T12:14:55Z</time>
      </trkpt>
      <trkpt lat="43.83284" lon="5.3968">
        <ele>491.54</ele>
        <time>2021-02-26T12:15:15Z</time>
      </trkpt>
      <trkpt lat="43.83291" lon="5.39677">
        <ele>494.53</ele>
        <time>2021-02-26T12:15:33Z</time>
      </trkpt>
      <trkpt lat="43.83296" lon="5.39676">
        <ele>495.87</ele>
        <time>2021-02-26T12:15:55Z</time>
      </trkpt>
      <trkpt lat="43.83299" lon="5.3968">
        <ele>498.13</ele>
        <time>2021-02-26T12:16:13Z</time>
      </trkpt>
      <trkpt lat="43.83304" lon="5.39685">
        <ele>498.6</ele>
        <time>2021-02-26T12:16:30Z</time>
      </trkpt>
      <trkpt lat="43.83305" lon="5.39682">
        <ele>500.66</ele>
        <time>2021-02-26T12:16:34Z</time>
      </trkpt>
      <trkpt lat="43.83305" lon="5.39675">
        <ele>501.79</ele>
        <time>2021-02-26T12:16:50Z</time>
      </trkpt>
      <trkpt lat="43.83302" lon="5.3966">
        <ele>501.2</ele>
        <time>2021-02-26T12:17:07Z</time>
      </trkpt>
      <trkpt lat="43.83304" lon="5.39644">
        <ele>501.15</ele>
        <time>2021-02-26T12:17:22Z</time>
      </trkpt>
      <trkpt lat="43.83306" lon="5.39622">
        <ele>500.81</ele>
        <time>2021-02-26T12:17:41Z</time>
      </trkpt>
      <trkpt lat="43.83305" lon="5.39618">
        <ele>500.41</ele>
        <time>2021-02-26T12:17:44Z</time>
      </trkpt>
      <trkpt lat="43.83301" lon="5.39601">
        <ele>499.76</ele>
        <time>2021-02-26T12:17:56Z</time>
      </trkpt>
      <trkpt lat="43.833" lon="5.39593">
        <ele>499.71</ele>
        <time>2021-02-26T12:18:02Z</time>
      </trkpt>
      <trkpt lat="43.83289" lon="5.39567">
        <ele>499.82</ele>
        <time>2021-02-26T12:18:24Z</time>
      </trkpt>
      <trkpt lat="43.83276" lon="5.39555">
        <ele>498.81</ele>
        <time>2021-02-26T12:18:42Z</time>
      </trkpt>
      <trkpt lat="43.83261" lon="5.3954">
        <ele>499.14</ele>
        <time>2021-02-26T12:19:01Z</time>
      </trkpt>
      <trkpt lat="43.8324" lon="5.39525">
        <ele>499.76</ele>
        <time>2021-02-26T12:19:21Z</time>
      </trkpt>
      <trkpt lat="43.83238" lon="5.39524">
        <ele>499.57</ele>
        <time>2021-02-26T12:19:23Z</time>
      </trkpt>
      <trkpt lat="43.83217" lon="5.39511">
        <ele>501.41</ele>
        <time>2021-02-26T12:19:44Z</time>
      </trkpt>
      <trkpt lat="43.832" lon="5.39499">
        <ele>502.35</ele>
        <time>2021-02-26T12:20:06Z</time>
      </trkpt>
      <trkpt lat="43.83191" lon="5.3949">
        <ele>503.72</ele>
        <time>2021-02-26T12:20:23Z</time>
      </trkpt>
      <trkpt lat="43.83175" lon="5.39478">
        <ele>504.71</ele>
        <time>2021-02-26T12:20:44Z</time>
      </trkpt>
      <trkpt lat="43.83156" lon="5.39468">
        <ele>505.37</ele>
        <time>2021-02-26T12:21:05Z</time>
      </trkpt>
      <trkpt lat="43.83139" lon="5.39452">
        <ele>506.52</ele>
        <time>2021-02-26T12:21:26Z</time>
      </trkpt>
      <trkpt lat="43.83125" lon="5.39441">
        <ele>506.52</ele>
        <time>2021-02-26T12:21:49Z</time>
      </trkpt>
      <trkpt lat="43.83124" lon="5.39436">
        <ele>506.39</ele>
        <time>2021-02-26T12:21:53Z</time>
      </trkpt>
      <trkpt lat="43.83112" lon="5.3942">
        <ele>506.93</ele>
        <time>2021-02-26T12:22:12Z</time>
      </trkpt>
      <trkpt lat="43.831" lon="5.39409">
        <ele>506.19</ele>
        <time>2021-02-26T12:22:27Z</time>
      </trkpt>
      <trkpt lat="43.83079" lon="5.39394">
        <ele>504.22</ele>
        <time>2021-02-26T12:22:49Z</time>
      </trkpt>
      <trkpt lat="43.83066" lon="5.39368">
        <ele>503.62</ele>
        <time>2021-02-26T12:23:10Z</time>
      </trkpt>
      <trkpt lat="43.8306" lon="5.39348">
        <ele>502.96</ele>
        <time>2021-02-26T12:23:27Z</time>
      </trkpt>
      <trkpt lat="43.8306" lon="5.39346">
        <ele>502.99</ele>
        <time>2021-02-26T12:23:30Z</time>
      </trkpt>
      <trkpt lat="43.8306" lon="5.39343">
        <ele>503.03</ele>
        <time>2021-02-26T12:23:32Z</time>
      </trkpt>
      <trkpt lat="43.83047" lon="5.39327">
        <ele>502.71</ele>
        <time>2021-02-26T12:23:47Z</time>
      </trkpt>
      <trkpt lat="43.83037" lon="5.39311">
        <ele>504.94</ele>
        <time>2021-02-26T12:24:05Z</time>
      </trkpt>
      <trkpt lat="43.83035" lon="5.39286">
        <ele>505.82</ele>
        <time>2021-02-26T12:24:26Z</time>
      </trkpt>
      <trkpt lat="43.83033" lon="5.39264">
        <ele>505.18</ele>
        <time>2021-02-26T12:24:45Z</time>
      </trkpt>
      <trkpt lat="43.83025" lon="5.39254">
        <ele>505.41</ele>
        <time>2021-02-26T12:25:01Z</time>
      </trkpt>
      <trkpt lat="43.83009" lon="5.39242">
        <ele>504.5</ele>
        <time>2021-02-26T12:25:27Z</time>
      </trkpt>
      <trkpt lat="43.83003" lon="5.39239">
        <ele>505.23</ele>
        <time>2021-02-26T12:25:34Z</time>
      </trkpt>
      <trkpt lat="43.82987" lon="5.39228">
        <ele>505.48</ele>
        <time>2021-02-26T12:25:54Z</time>
      </trkpt>
      <trkpt lat="43.82976" lon="5.39221">
        <ele>505.17</ele>
        <time>2021-02-26T12:26:09Z</time>
      </trkpt>
      <trkpt lat="43.82979" lon="5.39221">
        <ele>505.25</ele>
        <time>2021-02-26T12:26:39Z</time>
      </trkpt>
      <trkpt lat="43.82977" lon="5.39204">
        <ele>505.59</ele>
        <time>2021-02-26T12:26:54Z</time>
      </trkpt>
      <trkpt lat="43.82979" lon="5.39178">
        <ele>504.1</ele>
        <time>2021-02-26T12:27:15Z</time>
      </trkpt>
      <trkpt lat="43.8298" lon="5.39173">
        <ele>504.15</ele>
        <time>2021-02-26T12:27:19Z</time>
      </trkpt>
      <trkpt lat="43.82981" lon="5.39156">
        <ele>505.58</ele>
        <time>2021-02-26T12:27:35Z</time>
      </trkpt>
      <trkpt lat="43.82977" lon="5.39147">
        <ele>504.17</ele>
        <time>2021-02-26T12:27:47Z</time>
      </trkpt>
      <trkpt lat="43.82973" lon="5.39139">
        <ele>503.83</ele>
        <time>2021-02-26T12:27:56Z</time>
      </trkpt>
      <trkpt lat="43.82964" lon="5.39124">
        <ele>501.92</ele>
        <time>2021-02-26T12:28:13Z</time>
      </trkpt>
      <trkpt lat="43.82958" lon="5.39117">
        <ele>501.96</ele>
        <time>2021-02-26T12:28:20Z</time>
      </trkpt>
      <trkpt lat="43.82942" lon="5.39099">
        <ele>500.35</ele>
        <time>2021-02-26T12:28:41Z</time>
      </trkpt>
      <trkpt lat="43.82928" lon="5.39074">
        <ele>499.25</ele>
        <time>2021-02-26T12:29:04Z</time>
      </trkpt>
      <trkpt lat="43.82929" lon="5.39057">
        <ele>500.32</ele>
        <time>2021-02-26T12:29:21Z</time>
      </trkpt>
      <trkpt lat="43.82934" lon="5.39054">
        <ele>500.01</ele>
        <time>2021-02-26T12:29:29Z</time>
      </trkpt>
      <trkpt lat="43.82937" lon="5.39045">
        <ele>500.27</ele>
        <time>2021-02-26T12:29:49Z</time>
      </trkpt>
      <trkpt lat="43.82935" lon="5.3904">
        <ele>500.9</ele>
        <time>2021-02-26T12:30:08Z</time>
      </trkpt>
      <trkpt lat="43.82937" lon="5.39038">
        <ele>502.11</ele>
        <time>2021-02-26T12:30:26Z</time>
      </trkpt>
      <trkpt lat="43.82929" lon="5.39041">
        <ele>499.38</ele>
        <time>2021-02-26T12:30:40Z</time>
      </trkpt>
      <trkpt lat="43.82917" lon="5.39047">
        <ele>497.94</ele>
        <time>2021-02-26T12:30:57Z</time>
      </trkpt>
      <trkpt lat="43.82914" lon="5.39042">
        <ele>497.83</ele>
        <time>2021-02-26T12:31:03Z</time>
      </trkpt>
      <trkpt lat="43.82902" lon="5.39023">
        <ele>496.67</ele>
        <time>2021-02-26T12:31:23Z</time>
      </trkpt>
      <trkpt lat="43.82892" lon="5.39009">
        <ele>497.92</ele>
        <time>2021-02-26T12:31:38Z</time>
      </trkpt>
      <trkpt lat="43.82884" lon="5.38999">
        <ele>495.14</ele>
        <time>2021-02-26T12:31:57Z</time>
      </trkpt>
      <trkpt lat="43.82881" lon="5.38996">
        <ele>495.62</ele>
        <time>2021-02-26T12:32:29Z</time>
      </trkpt>
      <trkpt lat="43.82879" lon="5.38994">
        <ele>495.25</ele>
        <time>2021-02-26T12:32:34Z</time>
      </trkpt>
      <trkpt lat="43.8286" lon="5.38983">
        <ele>495.77</ele>
        <time>2021-02-26T12:32:55Z</time>
      </trkpt>
      <trkpt lat="43.82851" lon="5.38977">
        <ele>496.49</ele>
        <time>2021-02-26T12:33:09Z</time>
      </trkpt>
      <trkpt lat="43.82843" lon="5.38968">
        <ele>496.82</ele>
        <time>2021-02-26T12:33:27Z</time>
      </trkpt>
      <trkpt lat="43.82832" lon="5.38956">
        <ele>497.49</ele>
        <time>2021-02-26T12:33:44Z</time>
      </trkpt>
      <trkpt lat="43.82816" lon="5.38953">
        <ele>498.53</ele>
        <time>2021-02-26T12:34:04Z</time>
      </trkpt>
      <trkpt lat="43.82805" lon="5.38951">
        <ele>499.49</ele>
        <time>2021-02-26T12:34:20Z</time>
      </trkpt>
      <trkpt lat="43.82797" lon="5.38944">
        <ele>500.57</ele>
        <time>2021-02-26T12:34:38Z</time>
      </trkpt>
      <trkpt lat="43.82785" lon="5.38941">
        <ele>501.61</ele>
        <time>2021-02-26T12:34:59Z</time>
      </trkpt>
      <trkpt lat="43.8277" lon="5.38936">
        <ele>503.72</ele>
        <time>2021-02-26T12:35:19Z</time>
      </trkpt>
      <trkpt lat="43.82759" lon="5.38935">
        <ele>504.37</ele>
        <time>2021-02-26T12:35:38Z</time>
      </trkpt>
      <trkpt lat="43.82746" lon="5.38933">
        <ele>505.49</ele>
        <time>2021-02-26T12:35:57Z</time>
      </trkpt>
      <trkpt lat="43.82725" lon="5.38935">
        <ele>506.78</ele>
        <time>2021-02-26T12:36:22Z</time>
      </trkpt>
      <trkpt lat="43.82705" lon="5.38936">
        <ele>507.25</ele>
        <time>2021-02-26T12:36:40Z</time>
      </trkpt>
      <trkpt lat="43.82689" lon="5.38936">
        <ele>507.83</ele>
        <time>2021-02-26T12:37:00Z</time>
      </trkpt>
      <trkpt lat="43.82671" lon="5.38935">
        <ele>507.66</ele>
        <time>2021-02-26T12:37:19Z</time>
      </trkpt>
      <trkpt lat="43.82655" lon="5.3893">
        <ele>508.6</ele>
        <time>2021-02-26T12:37:38Z</time>
      </trkpt>
      <trkpt lat="43.82651" lon="5.38917">
        <ele>508.43</ele>
        <time>2021-02-26T12:37:53Z</time>
      </trkpt>
      <trkpt lat="43.82649" lon="5.38908">
        <ele>508.18</ele>
        <time>2021-02-26T12:38:11Z</time>
      </trkpt>
      <trkpt lat="43.82646" lon="5.38905">
        <ele>508.06</ele>
        <time>2021-02-26T12:38:45Z</time>
      </trkpt>
      <trkpt lat="43.82645" lon="5.38904">
        <ele>506.93</ele>
        <time>2021-02-26T12:39:13Z</time>
      </trkpt>
      <trkpt lat="43.82647" lon="5.38903">
        <ele>508.32</ele>
        <time>2021-02-26T12:40:10Z</time>
      </trkpt>
      <trkpt lat="43.82646" lon="5.38903">
        <ele>508.1</ele>
        <time>2021-02-26T12:41:00Z</time>
      </trkpt>
      <trkpt lat="43.82647" lon="5.38903">
        <ele>507.96</ele>
        <time>2021-02-26T12:41:28Z</time>
      </trkpt>
      <trkpt lat="43.82648" lon="5.38904">
        <ele>507.95</ele>
        <time>2021-02-26T12:42:02Z</time>
      </trkpt>
      <trkpt lat="43.82648" lon="5.38903">
        <ele>508.17</ele>
        <time>2021-02-26T12:42:26Z</time>
      </trkpt>
      <trkpt lat="43.82649" lon="5.38905">
        <ele>508.95</ele>
        <time>2021-02-26T12:43:03Z</time>
      </trkpt>
      <trkpt lat="43.82649" lon="5.38906">
        <ele>508.86</ele>
        <time>2021-02-26T12:43:51Z</time>
      </trkpt>
      <trkpt lat="43.8265" lon="5.38908">
        <ele>509.01</ele>
        <time>2021-02-26T12:44:20Z</time>
      </trkpt>
      <trkpt lat="43.82648" lon="5.38907">
        <ele>509.43</ele>
        <time>2021-02-26T12:44:51Z</time>
      </trkpt>
      <trkpt lat="43.82648" lon="5.38908">
        <ele>510.42</ele>
        <time>2021-02-26T12:45:26Z</time>
      </trkpt>
      <trkpt lat="43.82646" lon="5.38909">
        <ele>510.26</ele>
        <time>2021-02-26T12:46:03Z</time>
      </trkpt>
      <trkpt lat="43.82646" lon="5.38908">
        <ele>510.64</ele>
        <time>2021-02-26T12:46:30Z</time>
      </trkpt>
      <trkpt lat="43.82647" lon="5.38908">
        <ele>510.62</ele>
        <time>2021-02-26T12:46:57Z</time>
      </trkpt>
      <trkpt lat="43.82647" lon="5.38906">
        <ele>510.91</ele>
        <time>2021-02-26T12:47:24Z</time>
      </trkpt>
      <trkpt lat="43.82648" lon="5.38906">
        <ele>510.54</ele>
        <time>2021-02-26T12:47:56Z</time>
      </trkpt>
      <trkpt lat="43.82648" lon="5.38905">
        <ele>511.46</ele>
        <time>2021-02-26T12:48:27Z</time>
      </trkpt>
      <trkpt lat="43.82646" lon="5.38905">
        <ele>511.14</ele>
        <time>2021-02-26T12:48:53Z</time>
      </trkpt>
      <trkpt lat="43.82646" lon="5.38907">
        <ele>511.07</ele>
        <time>2021-02-26T12:49:21Z</time>
      </trkpt>
      <trkpt lat="43.82643" lon="5.38907">
        <ele>511.05</ele>
        <time>2021-02-26T12:49:51Z</time>
      </trkpt>
      <trkpt lat="43.82642" lon="5.38906">
        <ele>511.77</ele>
        <time>2021-02-26T12:50:21Z</time>
      </trkpt>
      <trkpt lat="43.82644" lon="5.38907">
        <ele>511.71</ele>
        <time>2021-02-26T12:50:50Z</time>
      </trkpt>
      <trkpt lat="43.82641" lon="5.38907">
        <ele>511.78</ele>
        <time>2021-02-26T12:51:17Z</time>
      </trkpt>
      <trkpt lat="43.8264" lon="5.38906">
        <ele>511.79</ele>
        <time>2021-02-26T12:51:44Z</time>
      </trkpt>
      <trkpt lat="43.82641" lon="5.38905">
        <ele>512.21</ele>
        <time>2021-02-26T12:52:11Z</time>
      </trkpt>
      <trkpt lat="43.82639" lon="5.38904">
        <ele>511.79</ele>
        <time>2021-02-26T12:52:44Z</time>
      </trkpt>
      <trkpt lat="43.82639" lon="5.38906">
        <ele>511.7</ele>
        <time>2021-02-26T12:53:15Z</time>
      </trkpt>
      <trkpt lat="43.82643" lon="5.38905">
        <ele>512.85</ele>
        <time>2021-02-26T12:53:42Z</time>
      </trkpt>
      <trkpt lat="43.82643" lon="5.38905">
        <ele>513.14</ele>
        <time>2021-02-26T12:53:43Z</time>
      </trkpt>
      <trkpt lat="43.82643" lon="5.38907">
        <ele>512.64</ele>
        <time>2021-02-26T12:54:17Z</time>
      </trkpt>
      <trkpt lat="43.82643" lon="5.38911">
        <ele>513.55</ele>
        <time>2021-02-26T12:54:34Z</time>
      </trkpt>
      <trkpt lat="43.82639" lon="5.38919">
        <ele>512.76</ele>
        <time>2021-02-26T12:54:42Z</time>
      </trkpt>
      <trkpt lat="43.82629" lon="5.3893">
        <ele>511.25</ele>
        <time>2021-02-26T12:54:59Z</time>
      </trkpt>
      <trkpt lat="43.82619" lon="5.38935">
        <ele>509.09</ele>
        <time>2021-02-26T12:55:16Z</time>
      </trkpt>
      <trkpt lat="43.82608" lon="5.38937">
        <ele>506.87</ele>
        <time>2021-02-26T12:55:31Z</time>
      </trkpt>
      <trkpt lat="43.82602" lon="5.38935">
        <ele>506.39</ele>
        <time>2021-02-26T12:55:39Z</time>
      </trkpt>
      <trkpt lat="43.82595" lon="5.38915">
        <ele>504.17</ele>
        <time>2021-02-26T12:55:58Z</time>
      </trkpt>
      <trkpt lat="43.82593" lon="5.38909">
        <ele>503.07</ele>
        <time>2021-02-26T12:56:03Z</time>
      </trkpt>
      <trkpt lat="43.82593" lon="5.38906">
        <ele>502.46</ele>
        <time>2021-02-26T12:56:07Z</time>
      </trkpt>
      <trkpt lat="43.82593" lon="5.38908">
        <ele>502.73</ele>
        <time>2021-02-26T12:56:25Z</time>
      </trkpt>
      <trkpt lat="43.82591" lon="5.38915">
        <ele>500.64</ele>
        <time>2021-02-26T12:56:44Z</time>
      </trkpt>
      <trkpt lat="43.82586" lon="5.38922">
        <ele>498.8</ele>
        <time>2021-02-26T12:56:58Z</time>
      </trkpt>
      <trkpt lat="43.82582" lon="5.38924">
        <ele>497.66</ele>
        <time>2021-02-26T12:57:11Z</time>
      </trkpt>
      <trkpt lat="43.82576" lon="5.38915">
        <ele>495.93</ele>
        <time>2021-02-26T12:57:25Z</time>
      </trkpt>
      <trkpt lat="43.8257" lon="5.38901">
        <ele>494.2</ele>
        <time>2021-02-26T12:57:41Z</time>
      </trkpt>
      <trkpt lat="43.82564" lon="5.38885">
        <ele>491.11</ele>
        <time>2021-02-26T12:57:57Z</time>
      </trkpt>
      <trkpt lat="43.82563" lon="5.3888">
        <ele>491.87</ele>
        <time>2021-02-26T12:58:12Z</time>
      </trkpt>
      <trkpt lat="43.82555" lon="5.38866">
        <ele>490.11</ele>
        <time>2021-02-26T12:58:30Z</time>
      </trkpt>
      <trkpt lat="43.82553" lon="5.38862">
        <ele>488.83</ele>
        <time>2021-02-26T12:58:35Z</time>
      </trkpt>
      <trkpt lat="43.82541" lon="5.38854">
        <ele>485.95</ele>
        <time>2021-02-26T12:58:56Z</time>
      </trkpt>
      <trkpt lat="43.82546" lon="5.38866">
        <ele>483.43</ele>
        <time>2021-02-26T12:59:14Z</time>
      </trkpt>
      <trkpt lat="43.82554" lon="5.38882">
        <ele>480.51</ele>
        <time>2021-02-26T12:59:33Z</time>
      </trkpt>
      <trkpt lat="43.82562" lon="5.38898">
        <ele>477.96</ele>
        <time>2021-02-26T12:59:54Z</time>
      </trkpt>
      <trkpt lat="43.82563" lon="5.38914">
        <ele>476.09</ele>
        <time>2021-02-26T13:00:12Z</time>
      </trkpt>
      <trkpt lat="43.82566" lon="5.38933">
        <ele>476.99</ele>
        <time>2021-02-26T13:00:28Z</time>
      </trkpt>
      <trkpt lat="43.82568" lon="5.38939">
        <ele>476.11</ele>
        <time>2021-02-26T13:00:46Z</time>
      </trkpt>
      <trkpt lat="43.82566" lon="5.38942">
        <ele>475.94</ele>
        <time>2021-02-26T13:01:16Z</time>
      </trkpt>
      <trkpt lat="43.82566" lon="5.3894">
        <ele>476.07</ele>
        <time>2021-02-26T13:01:49Z</time>
      </trkpt>
      <trkpt lat="43.82565" lon="5.38934">
        <ele>476.03</ele>
        <time>2021-02-26T13:02:03Z</time>
      </trkpt>
      <trkpt lat="43.82557" lon="5.38921">
        <ele>474.56</ele>
        <time>2021-02-26T13:02:20Z</time>
      </trkpt>
      <trkpt lat="43.82547" lon="5.38903">
        <ele>472.27</ele>
        <time>2021-02-26T13:02:40Z</time>
      </trkpt>
      <trkpt lat="43.82538" lon="5.38893">
        <ele>469.43</ele>
        <time>2021-02-26T13:02:58Z</time>
      </trkpt>
      <trkpt lat="43.82544" lon="5.38904">
        <ele>467.54</ele>
        <time>2021-02-26T13:03:14Z</time>
      </trkpt>
      <trkpt lat="43.82537" lon="5.3891">
        <ele>464.33</ele>
        <time>2021-02-26T13:03:30Z</time>
      </trkpt>
      <trkpt lat="43.82528" lon="5.38902">
        <ele>461.71</ele>
        <time>2021-02-26T13:03:49Z</time>
      </trkpt>
      <trkpt lat="43.82519" lon="5.38891">
        <ele>459.8</ele>
        <time>2021-02-26T13:04:08Z</time>
      </trkpt>
      <trkpt lat="43.82514" lon="5.38881">
        <ele>456.57</ele>
        <time>2021-02-26T13:04:26Z</time>
      </trkpt>
      <trkpt lat="43.82503" lon="5.38869">
        <ele>453.4</ele>
        <time>2021-02-26T13:04:46Z</time>
      </trkpt>
      <trkpt lat="43.82493" lon="5.38862">
        <ele>449.85</ele>
        <time>2021-02-26T13:05:04Z</time>
      </trkpt>
      <trkpt lat="43.82495" lon="5.38875">
        <ele>448.9</ele>
        <time>2021-02-26T13:05:21Z</time>
      </trkpt>
      <trkpt lat="43.825" lon="5.38894">
        <ele>446.31</ele>
        <time>2021-02-26T13:05:38Z</time>
      </trkpt>
      <trkpt lat="43.82505" lon="5.38904">
        <ele>445.03</ele>
        <time>2021-02-26T13:05:55Z</time>
      </trkpt>
      <trkpt lat="43.82505" lon="5.38921">
        <ele>442.87</ele>
        <time>2021-02-26T13:06:13Z</time>
      </trkpt>
      <trkpt lat="43.8251" lon="5.38937">
        <ele>440.22</ele>
        <time>2021-02-26T13:06:30Z</time>
      </trkpt>
      <trkpt lat="43.82503" lon="5.38935">
        <ele>439.5</ele>
        <time>2021-02-26T13:06:44Z</time>
      </trkpt>
      <trkpt lat="43.82496" lon="5.38921">
        <ele>438.17</ele>
        <time>2021-02-26T13:07:00Z</time>
      </trkpt>
      <trkpt lat="43.82493" lon="5.38911">
        <ele>438.42</ele>
        <time>2021-02-26T13:07:18Z</time>
      </trkpt>
      <trkpt lat="43.82483" lon="5.38898">
        <ele>436.91</ele>
        <time>2021-02-26T13:07:35Z</time>
      </trkpt>
      <trkpt lat="43.8248" lon="5.38892">
        <ele>436.25</ele>
        <time>2021-02-26T13:07:41Z</time>
      </trkpt>
      <trkpt lat="43.82473" lon="5.38879">
        <ele>434.69</ele>
        <time>2021-02-26T13:07:55Z</time>
      </trkpt>
      <trkpt lat="43.82472" lon="5.38869">
        <ele>433.96</ele>
        <time>2021-02-26T13:08:20Z</time>
      </trkpt>
      <trkpt lat="43.82472" lon="5.38868">
        <ele>433.94</ele>
        <time>2021-02-26T13:08:26Z</time>
      </trkpt>
      <trkpt lat="43.82465" lon="5.38862">
        <ele>432.63</ele>
        <time>2021-02-26T13:08:45Z</time>
      </trkpt>
      <trkpt lat="43.82465" lon="5.38861">
        <ele>432.41</ele>
        <time>2021-02-26T13:08:46Z</time>
      </trkpt>
      <trkpt lat="43.82452" lon="5.38858">
        <ele>432.77</ele>
        <time>2021-02-26T13:09:03Z</time>
      </trkpt>
      <trkpt lat="43.8245" lon="5.38854">
        <ele>432.61</ele>
        <time>2021-02-26T13:09:08Z</time>
      </trkpt>
      <trkpt lat="43.8244" lon="5.38841">
        <ele>433.5</ele>
        <time>2021-02-26T13:09:25Z</time>
      </trkpt>
      <trkpt lat="43.82429" lon="5.38825">
        <ele>434.08</ele>
        <time>2021-02-26T13:09:43Z</time>
      </trkpt>
      <trkpt lat="43.82416" lon="5.38811">
        <ele>432.91</ele>
        <time>2021-02-26T13:10:00Z</time>
      </trkpt>
      <trkpt lat="43.82407" lon="5.38804">
        <ele>430.94</ele>
        <time>2021-02-26T13:10:16Z</time>
      </trkpt>
      <trkpt lat="43.82399" lon="5.38797">
        <ele>427.9</ele>
        <time>2021-02-26T13:10:30Z</time>
      </trkpt>
      <trkpt lat="43.82393" lon="5.3879">
        <ele>426.07</ele>
        <time>2021-02-26T13:10:45Z</time>
      </trkpt>
      <trkpt lat="43.82385" lon="5.38779">
        <ele>423.47</ele>
        <time>2021-02-26T13:11:02Z</time>
      </trkpt>
      <trkpt lat="43.8238" lon="5.3877">
        <ele>420.45</ele>
        <time>2021-02-26T13:11:14Z</time>
      </trkpt>
      <trkpt lat="43.82375" lon="5.38768">
        <ele>419.8</ele>
        <time>2021-02-26T13:11:20Z</time>
      </trkpt>
      <trkpt lat="43.82365" lon="5.38761">
        <ele>417.52</ele>
        <time>2021-02-26T13:11:35Z</time>
      </trkpt>
      <trkpt lat="43.82356" lon="5.38755">
        <ele>414.41</ele>
        <time>2021-02-26T13:11:46Z</time>
      </trkpt>
      <trkpt lat="43.82339" lon="5.38747">
        <ele>412.25</ele>
        <time>2021-02-26T13:12:05Z</time>
      </trkpt>
      <trkpt lat="43.8233" lon="5.3873">
        <ele>409.36</ele>
        <time>2021-02-26T13:12:24Z</time>
      </trkpt>
      <trkpt lat="43.82326" lon="5.38725">
        <ele>409.21</ele>
        <time>2021-02-26T13:12:46Z</time>
      </trkpt>
      <trkpt lat="43.82322" lon="5.38725">
        <ele>409.04</ele>
        <time>2021-02-26T13:13:05Z</time>
      </trkpt>
      <trkpt lat="43.82321" lon="5.38734">
        <ele>407.54</ele>
        <time>2021-02-26T13:13:22Z</time>
      </trkpt>
      <trkpt lat="43.82329" lon="5.38752">
        <ele>406.83</ele>
        <time>2021-02-26T13:13:39Z</time>
      </trkpt>
      <trkpt lat="43.82337" lon="5.38762">
        <ele>405.8</ele>
        <time>2021-02-26T13:13:50Z</time>
      </trkpt>
      <trkpt lat="43.82342" lon="5.38782">
        <ele>406.26</ele>
        <time>2021-02-26T13:14:09Z</time>
      </trkpt>
      <trkpt lat="43.82328" lon="5.388">
        <ele>406.3</ele>
        <time>2021-02-26T13:14:30Z</time>
      </trkpt>
      <trkpt lat="43.82318" lon="5.38804">
        <ele>407.91</ele>
        <time>2021-02-26T13:14:49Z</time>
      </trkpt>
      <trkpt lat="43.82308" lon="5.38807">
        <ele>409.16</ele>
        <time>2021-02-26T13:15:09Z</time>
      </trkpt>
      <trkpt lat="43.82294" lon="5.38812">
        <ele>411.48</ele>
        <time>2021-02-26T13:15:34Z</time>
      </trkpt>
      <trkpt lat="43.82282" lon="5.38823">
        <ele>413.13</ele>
        <time>2021-02-26T13:15:55Z</time>
      </trkpt>
      <trkpt lat="43.82273" lon="5.38833">
        <ele>413.81</ele>
        <time>2021-02-26T13:16:16Z</time>
      </trkpt>
      <trkpt lat="43.82266" lon="5.38841">
        <ele>414.39</ele>
        <time>2021-02-26T13:16:37Z</time>
      </trkpt>
      <trkpt lat="43.82258" lon="5.38827">
        <ele>413.75</ele>
        <time>2021-02-26T13:16:58Z</time>
      </trkpt>
      <trkpt lat="43.82257" lon="5.38811">
        <ele>412.99</ele>
        <time>2021-02-26T13:17:12Z</time>
      </trkpt>
      <trkpt lat="43.82251" lon="5.38787">
        <ele>412.61</ele>
        <time>2021-02-26T13:17:30Z</time>
      </trkpt>
      <trkpt lat="43.82245" lon="5.38775">
        <ele>412.71</ele>
        <time>2021-02-26T13:17:46Z</time>
      </trkpt>
      <trkpt lat="43.82241" lon="5.38761">
        <ele>413.41</ele>
        <time>2021-02-26T13:18:01Z</time>
      </trkpt>
      <trkpt lat="43.82235" lon="5.38749">
        <ele>413.33</ele>
        <time>2021-02-26T13:18:17Z</time>
      </trkpt>
      <trkpt lat="43.82226" lon="5.38725">
        <ele>414.56</ele>
        <time>2021-02-26T13:18:38Z</time>
      </trkpt>
      <trkpt lat="43.82221" lon="5.38715">
        <ele>414.52</ele>
        <time>2021-02-26T13:18:46Z</time>
      </trkpt>
      <trkpt lat="43.82212" lon="5.38695">
        <ele>412.67</ele>
        <time>2021-02-26T13:19:07Z</time>
      </trkpt>
      <trkpt lat="43.82204" lon="5.38674">
        <ele>411.07</ele>
        <time>2021-02-26T13:19:26Z</time>
      </trkpt>
      <trkpt lat="43.82206" lon="5.38674">
        <ele>411.6</ele>
        <time>2021-02-26T13:19:42Z</time>
      </trkpt>
      <trkpt lat="43.8221" lon="5.38672">
        <ele>411.11</ele>
        <time>2021-02-26T13:20:03Z</time>
      </trkpt>
      <trkpt lat="43.82199" lon="5.3866">
        <ele>410.25</ele>
        <time>2021-02-26T13:20:28Z</time>
      </trkpt>
      <trkpt lat="43.82192" lon="5.38649">
        <ele>408.71</ele>
        <time>2021-02-26T13:20:46Z</time>
      </trkpt>
      <trkpt lat="43.82184" lon="5.38632">
        <ele>407.84</ele>
        <time>2021-02-26T13:21:03Z</time>
      </trkpt>
      <trkpt lat="43.82178" lon="5.38611">
        <ele>404.96</ele>
        <time>2021-02-26T13:21:23Z</time>
      </trkpt>
      <trkpt lat="43.82179" lon="5.38598">
        <ele>402.98</ele>
        <time>2021-02-26T13:21:36Z</time>
      </trkpt>
      <trkpt lat="43.82181" lon="5.38576">
        <ele>402.01</ele>
        <time>2021-02-26T13:21:57Z</time>
      </trkpt>
      <trkpt lat="43.82184" lon="5.38554">
        <ele>400.93</ele>
        <time>2021-02-26T13:22:16Z</time>
      </trkpt>
      <trkpt lat="43.82189" lon="5.38531">
        <ele>400.42</ele>
        <time>2021-02-26T13:22:35Z</time>
      </trkpt>
      <trkpt lat="43.82198" lon="5.38526">
        <ele>398.31</ele>
        <time>2021-02-26T13:22:50Z</time>
      </trkpt>
      <trkpt lat="43.822" lon="5.38517">
        <ele>396.63</ele>
        <time>2021-02-26T13:23:08Z</time>
      </trkpt>
      <trkpt lat="43.82213" lon="5.38522">
        <ele>394.92</ele>
        <time>2021-02-26T13:23:24Z</time>
      </trkpt>
      <trkpt lat="43.82217" lon="5.38522">
        <ele>394</ele>
        <time>2021-02-26T13:23:30Z</time>
      </trkpt>
      <trkpt lat="43.82228" lon="5.38527">
        <ele>393.16</ele>
        <time>2021-02-26T13:23:45Z</time>
      </trkpt>
      <trkpt lat="43.82239" lon="5.38529">
        <ele>392.13</ele>
        <time>2021-02-26T13:24:01Z</time>
      </trkpt>
      <trkpt lat="43.82251" lon="5.38533">
        <ele>391.96</ele>
        <time>2021-02-26T13:24:15Z</time>
      </trkpt>
      <trkpt lat="43.82256" lon="5.38533">
        <ele>391.49</ele>
        <time>2021-02-26T13:24:22Z</time>
      </trkpt>
      <trkpt lat="43.82264" lon="5.38532">
        <ele>393.52</ele>
        <time>2021-02-26T13:24:38Z</time>
      </trkpt>
      <trkpt lat="43.82275" lon="5.38532">
        <ele>393.86</ele>
        <time>2021-02-26T13:24:57Z</time>
      </trkpt>
      <trkpt lat="43.82286" lon="5.38533">
        <ele>395.35</ele>
        <time>2021-02-26T13:25:16Z</time>
      </trkpt>
      <trkpt lat="43.82294" lon="5.38529">
        <ele>396.17</ele>
        <time>2021-02-26T13:25:33Z</time>
      </trkpt>
      <trkpt lat="43.82298" lon="5.38528">
        <ele>396.41</ele>
        <time>2021-02-26T13:25:51Z</time>
      </trkpt>
      <trkpt lat="43.82299" lon="5.38529">
        <ele>396.76</ele>
        <time>2021-02-26T13:26:00Z</time>
      </trkpt>
      <trkpt lat="43.82296" lon="5.38531">
        <ele>397.5</ele>
        <time>2021-02-26T13:26:32Z</time>
      </trkpt>
      <trkpt lat="43.82289" lon="5.38532">
        <ele>396.1</ele>
        <time>2021-02-26T13:26:39Z</time>
      </trkpt>
      <trkpt lat="43.82273" lon="5.38538">
        <ele>392.81</ele>
        <time>2021-02-26T13:26:59Z</time>
      </trkpt>
      <trkpt lat="43.82275" lon="5.38534">
        <ele>392.6</ele>
        <time>2021-02-26T13:27:20Z</time>
      </trkpt>
      <trkpt lat="43.82278" lon="5.38535">
        <ele>393.38</ele>
        <time>2021-02-26T13:27:39Z</time>
      </trkpt>
      <trkpt lat="43.82276" lon="5.38536">
        <ele>392.95</ele>
        <time>2021-02-26T13:27:55Z</time>
      </trkpt>
      <trkpt lat="43.82277" lon="5.38539">
        <ele>393.62</ele>
        <time>2021-02-26T13:28:23Z</time>
      </trkpt>
      <trkpt lat="43.82276" lon="5.38542">
        <ele>393.71</ele>
        <time>2021-02-26T13:29:00Z</time>
      </trkpt>
      <trkpt lat="43.82273" lon="5.38539">
        <ele>392.8</ele>
        <time>2021-02-26T13:29:53Z</time>
      </trkpt>
      <trkpt lat="43.82271" lon="5.38541">
        <ele>392.27</ele>
        <time>2021-02-26T13:30:09Z</time>
      </trkpt>
      <trkpt lat="43.82271" lon="5.38538">
        <ele>392.82</ele>
        <time>2021-02-26T13:30:19Z</time>
      </trkpt>
      <trkpt lat="43.82267" lon="5.38539">
        <ele>392.22</ele>
        <time>2021-02-26T13:30:22Z</time>
      </trkpt>
      <trkpt lat="43.8224" lon="5.3853">
        <ele>393</ele>
        <time>2021-02-26T13:30:38Z</time>
      </trkpt>
      <trkpt lat="43.82211" lon="5.38505">
        <ele>396.67</ele>
        <time>2021-02-26T13:30:51Z</time>
      </trkpt>
    </trkseg>
  </trk>
</gpx>